<?xml version="1.0" encoding="UTF-8" standalone="no" ?>
<gpx xmlns="http://www.topografix.com/GPX/1/1" xmlns:xsi="http://www.w3.org/2001/XMLSchema-instance" xsi:schemaLocation="http://www.topografix.com/GPX/1/1 http://www.topografix.com/GPX/1/1/gpx.xsd" version="1.1" creator="VisuGPX - https://www.visugpx.com">
  <metadata>
    <name>83 - M - Pignans </name>
    <desc><![CDATA[83 - M - Pignans : les quatre termes 
2023-06-28]]></desc>
  </metadata>
  <trk>
    <name><![CDATA[Pignans - les quatre termes 2023-06-28-01]]></name>
    <trkseg>
      <trkpt lat="43.28856" lon="6.23062">
        <ele>189.3</ele>
        <time>2023-06-28T06:51:10Z</time>
      </trkpt>
      <trkpt lat="43.28854" lon="6.23064">
        <ele>177</ele>
        <time>2023-06-28T06:51:13Z</time>
      </trkpt>
      <trkpt lat="43.2885" lon="6.23068">
        <ele>157.6</ele>
        <time>2023-06-28T06:51:23Z</time>
      </trkpt>
      <trkpt lat="43.28851" lon="6.23066">
        <ele>154.8</ele>
        <time>2023-06-28T06:51:33Z</time>
      </trkpt>
      <trkpt lat="43.28849" lon="6.23065">
        <ele>154.8</ele>
        <time>2023-06-28T06:51:43Z</time>
      </trkpt>
      <trkpt lat="43.2885" lon="6.23065">
        <ele>154.8</ele>
        <time>2023-06-28T06:51:53Z</time>
      </trkpt>
      <trkpt lat="43.28851" lon="6.23066">
        <ele>154.6</ele>
        <time>2023-06-28T06:52:03Z</time>
      </trkpt>
      <trkpt lat="43.28852" lon="6.23066">
        <ele>154.6</ele>
        <time>2023-06-28T06:52:13Z</time>
      </trkpt>
      <trkpt lat="43.28852" lon="6.23066">
        <ele>154.6</ele>
        <time>2023-06-28T06:52:23Z</time>
      </trkpt>
      <trkpt lat="43.28851" lon="6.23067">
        <ele>154.4</ele>
        <time>2023-06-28T06:52:33Z</time>
      </trkpt>
      <trkpt lat="43.28849" lon="6.23066">
        <ele>150.4</ele>
        <time>2023-06-28T06:52:43Z</time>
      </trkpt>
      <trkpt lat="43.28848" lon="6.23063">
        <ele>156.6</ele>
        <time>2023-06-28T06:52:53Z</time>
      </trkpt>
      <trkpt lat="43.28849" lon="6.23063">
        <ele>155.2</ele>
        <time>2023-06-28T06:53:03Z</time>
      </trkpt>
      <trkpt lat="43.28855" lon="6.23072">
        <ele>154.9</ele>
        <time>2023-06-28T06:53:13Z</time>
      </trkpt>
      <trkpt lat="43.28858" lon="6.23083">
        <ele>155.1</ele>
        <time>2023-06-28T06:53:23Z</time>
      </trkpt>
      <trkpt lat="43.28859" lon="6.23093">
        <ele>155.6</ele>
        <time>2023-06-28T06:53:33Z</time>
      </trkpt>
      <trkpt lat="43.2886" lon="6.231">
        <ele>156.4</ele>
        <time>2023-06-28T06:53:43Z</time>
      </trkpt>
      <trkpt lat="43.28861" lon="6.23111">
        <ele>157.5</ele>
        <time>2023-06-28T06:53:53Z</time>
      </trkpt>
      <trkpt lat="43.28861" lon="6.23126">
        <ele>157.1</ele>
        <time>2023-06-28T06:54:03Z</time>
      </trkpt>
      <trkpt lat="43.28862" lon="6.23141">
        <ele>157.7</ele>
        <time>2023-06-28T06:54:13Z</time>
      </trkpt>
      <trkpt lat="43.28862" lon="6.23149">
        <ele>158</ele>
        <time>2023-06-28T06:54:23Z</time>
      </trkpt>
      <trkpt lat="43.28862" lon="6.23153">
        <ele>158.4</ele>
        <time>2023-06-28T06:54:33Z</time>
      </trkpt>
      <trkpt lat="43.28863" lon="6.23156">
        <ele>158.5</ele>
        <time>2023-06-28T06:54:43Z</time>
      </trkpt>
      <trkpt lat="43.28863" lon="6.23164">
        <ele>158.3</ele>
        <time>2023-06-28T06:54:53Z</time>
      </trkpt>
      <trkpt lat="43.28862" lon="6.23178">
        <ele>159.3</ele>
        <time>2023-06-28T06:55:03Z</time>
      </trkpt>
      <trkpt lat="43.28861" lon="6.23194">
        <ele>159.8</ele>
        <time>2023-06-28T06:55:13Z</time>
      </trkpt>
      <trkpt lat="43.28861" lon="6.23211">
        <ele>160.6</ele>
        <time>2023-06-28T06:55:23Z</time>
      </trkpt>
      <trkpt lat="43.28861" lon="6.23228">
        <ele>161.1</ele>
        <time>2023-06-28T06:55:33Z</time>
      </trkpt>
      <trkpt lat="43.28861" lon="6.23245">
        <ele>161.1</ele>
        <time>2023-06-28T06:55:43Z</time>
      </trkpt>
      <trkpt lat="43.28861" lon="6.23263">
        <ele>161.4</ele>
        <time>2023-06-28T06:55:53Z</time>
      </trkpt>
      <trkpt lat="43.28861" lon="6.23281">
        <ele>161.8</ele>
        <time>2023-06-28T06:56:03Z</time>
      </trkpt>
      <trkpt lat="43.28862" lon="6.233">
        <ele>162.3</ele>
        <time>2023-06-28T06:56:13Z</time>
      </trkpt>
      <trkpt lat="43.28862" lon="6.23317">
        <ele>162</ele>
        <time>2023-06-28T06:56:23Z</time>
      </trkpt>
      <trkpt lat="43.28861" lon="6.23337">
        <ele>162</ele>
        <time>2023-06-28T06:56:33Z</time>
      </trkpt>
      <trkpt lat="43.2886" lon="6.23354">
        <ele>161.3</ele>
        <time>2023-06-28T06:56:43Z</time>
      </trkpt>
      <trkpt lat="43.28858" lon="6.2337">
        <ele>159.9</ele>
        <time>2023-06-28T06:56:53Z</time>
      </trkpt>
      <trkpt lat="43.28857" lon="6.23389">
        <ele>159.2</ele>
        <time>2023-06-28T06:57:03Z</time>
      </trkpt>
      <trkpt lat="43.28855" lon="6.23409">
        <ele>159.4</ele>
        <time>2023-06-28T06:57:13Z</time>
      </trkpt>
      <trkpt lat="43.28853" lon="6.23428">
        <ele>159</ele>
        <time>2023-06-28T06:57:23Z</time>
      </trkpt>
      <trkpt lat="43.28852" lon="6.23447">
        <ele>159.5</ele>
        <time>2023-06-28T06:57:33Z</time>
      </trkpt>
      <trkpt lat="43.2885" lon="6.23465">
        <ele>159.4</ele>
        <time>2023-06-28T06:57:43Z</time>
      </trkpt>
      <trkpt lat="43.28849" lon="6.23482">
        <ele>160</ele>
        <time>2023-06-28T06:57:53Z</time>
      </trkpt>
      <trkpt lat="43.28849" lon="6.23498">
        <ele>160.1</ele>
        <time>2023-06-28T06:58:03Z</time>
      </trkpt>
      <trkpt lat="43.28848" lon="6.23516">
        <ele>160.5</ele>
        <time>2023-06-28T06:58:13Z</time>
      </trkpt>
      <trkpt lat="43.28848" lon="6.23535">
        <ele>161.2</ele>
        <time>2023-06-28T06:58:23Z</time>
      </trkpt>
      <trkpt lat="43.28847" lon="6.23552">
        <ele>161.6</ele>
        <time>2023-06-28T06:58:33Z</time>
      </trkpt>
      <trkpt lat="43.28847" lon="6.2357">
        <ele>161.6</ele>
        <time>2023-06-28T06:58:43Z</time>
      </trkpt>
      <trkpt lat="43.28845" lon="6.23579">
        <ele>162.1</ele>
        <time>2023-06-28T06:58:53Z</time>
      </trkpt>
      <trkpt lat="43.2884" lon="6.23587">
        <ele>161.5</ele>
        <time>2023-06-28T06:59:03Z</time>
      </trkpt>
      <trkpt lat="43.28835" lon="6.2359">
        <ele>160.5</ele>
        <time>2023-06-28T06:59:13Z</time>
      </trkpt>
      <trkpt lat="43.28827" lon="6.23597">
        <ele>159.9</ele>
        <time>2023-06-28T06:59:23Z</time>
      </trkpt>
      <trkpt lat="43.28826" lon="6.23603">
        <ele>159.9</ele>
        <time>2023-06-28T06:59:33Z</time>
      </trkpt>
      <trkpt lat="43.28825" lon="6.23603">
        <ele>159.7</ele>
        <time>2023-06-28T06:59:43Z</time>
      </trkpt>
      <trkpt lat="43.28825" lon="6.23604">
        <ele>159.8</ele>
        <time>2023-06-28T06:59:53Z</time>
      </trkpt>
      <trkpt lat="43.28819" lon="6.23606">
        <ele>159.5</ele>
        <time>2023-06-28T07:00:03Z</time>
      </trkpt>
      <trkpt lat="43.28813" lon="6.23613">
        <ele>159.3</ele>
        <time>2023-06-28T07:00:13Z</time>
      </trkpt>
      <trkpt lat="43.28808" lon="6.23619">
        <ele>159.4</ele>
        <time>2023-06-28T07:00:23Z</time>
      </trkpt>
      <trkpt lat="43.288" lon="6.23629">
        <ele>159.8</ele>
        <time>2023-06-28T07:00:33Z</time>
      </trkpt>
      <trkpt lat="43.28791" lon="6.23639">
        <ele>160.2</ele>
        <time>2023-06-28T07:00:43Z</time>
      </trkpt>
      <trkpt lat="43.28782" lon="6.23643">
        <ele>160.6</ele>
        <time>2023-06-28T07:00:53Z</time>
      </trkpt>
      <trkpt lat="43.28771" lon="6.23649">
        <ele>160.5</ele>
        <time>2023-06-28T07:01:03Z</time>
      </trkpt>
      <trkpt lat="43.28761" lon="6.23655">
        <ele>161.6</ele>
        <time>2023-06-28T07:01:13Z</time>
      </trkpt>
      <trkpt lat="43.28751" lon="6.23659">
        <ele>162.2</ele>
        <time>2023-06-28T07:01:23Z</time>
      </trkpt>
      <trkpt lat="43.2874" lon="6.23663">
        <ele>163.1</ele>
        <time>2023-06-28T07:01:33Z</time>
      </trkpt>
      <trkpt lat="43.28731" lon="6.23668">
        <ele>164</ele>
        <time>2023-06-28T07:01:43Z</time>
      </trkpt>
      <trkpt lat="43.28719" lon="6.23675">
        <ele>164.8</ele>
        <time>2023-06-28T07:01:53Z</time>
      </trkpt>
      <trkpt lat="43.28704" lon="6.23678">
        <ele>165.7</ele>
        <time>2023-06-28T07:02:03Z</time>
      </trkpt>
      <trkpt lat="43.28695" lon="6.23686">
        <ele>166.5</ele>
        <time>2023-06-28T07:02:13Z</time>
      </trkpt>
      <trkpt lat="43.28686" lon="6.23694">
        <ele>167.7</ele>
        <time>2023-06-28T07:02:23Z</time>
      </trkpt>
      <trkpt lat="43.2868" lon="6.23699">
        <ele>168.7</ele>
        <time>2023-06-28T07:02:33Z</time>
      </trkpt>
      <trkpt lat="43.28672" lon="6.23706">
        <ele>170</ele>
        <time>2023-06-28T07:02:43Z</time>
      </trkpt>
      <trkpt lat="43.2866" lon="6.23711">
        <ele>171.6</ele>
        <time>2023-06-28T07:02:53Z</time>
      </trkpt>
      <trkpt lat="43.2865" lon="6.23716">
        <ele>172.9</ele>
        <time>2023-06-28T07:03:03Z</time>
      </trkpt>
      <trkpt lat="43.28639" lon="6.23721">
        <ele>175.1</ele>
        <time>2023-06-28T07:03:13Z</time>
      </trkpt>
      <trkpt lat="43.28636" lon="6.23729">
        <ele>176.8</ele>
        <time>2023-06-28T07:03:23Z</time>
      </trkpt>
      <trkpt lat="43.28635" lon="6.23728">
        <ele>178.4</ele>
        <time>2023-06-28T07:03:33Z</time>
      </trkpt>
      <trkpt lat="43.28633" lon="6.2372">
        <ele>180</ele>
        <time>2023-06-28T07:03:43Z</time>
      </trkpt>
      <trkpt lat="43.28627" lon="6.23712">
        <ele>181.7</ele>
        <time>2023-06-28T07:03:53Z</time>
      </trkpt>
      <trkpt lat="43.28619" lon="6.23706">
        <ele>183</ele>
        <time>2023-06-28T07:04:03Z</time>
      </trkpt>
      <trkpt lat="43.28605" lon="6.23701">
        <ele>184.8</ele>
        <time>2023-06-28T07:04:13Z</time>
      </trkpt>
      <trkpt lat="43.28598" lon="6.237">
        <ele>186.9</ele>
        <time>2023-06-28T07:04:23Z</time>
      </trkpt>
      <trkpt lat="43.28588" lon="6.237">
        <ele>188.5</ele>
        <time>2023-06-28T07:04:33Z</time>
      </trkpt>
      <trkpt lat="43.28581" lon="6.23702">
        <ele>190</ele>
        <time>2023-06-28T07:04:43Z</time>
      </trkpt>
      <trkpt lat="43.28574" lon="6.23706">
        <ele>191.7</ele>
        <time>2023-06-28T07:04:53Z</time>
      </trkpt>
      <trkpt lat="43.28566" lon="6.23709">
        <ele>193.4</ele>
        <time>2023-06-28T07:05:03Z</time>
      </trkpt>
      <trkpt lat="43.28559" lon="6.23712">
        <ele>195.7</ele>
        <time>2023-06-28T07:05:13Z</time>
      </trkpt>
      <trkpt lat="43.28553" lon="6.23719">
        <ele>197.8</ele>
        <time>2023-06-28T07:05:23Z</time>
      </trkpt>
      <trkpt lat="43.28544" lon="6.23723">
        <ele>199.8</ele>
        <time>2023-06-28T07:05:33Z</time>
      </trkpt>
      <trkpt lat="43.28538" lon="6.23729">
        <ele>201.6</ele>
        <time>2023-06-28T07:05:43Z</time>
      </trkpt>
      <trkpt lat="43.28532" lon="6.23738">
        <ele>203.3</ele>
        <time>2023-06-28T07:05:53Z</time>
      </trkpt>
      <trkpt lat="43.28526" lon="6.23748">
        <ele>205.9</ele>
        <time>2023-06-28T07:06:03Z</time>
      </trkpt>
      <trkpt lat="43.2852" lon="6.2376">
        <ele>206.7</ele>
        <time>2023-06-28T07:06:13Z</time>
      </trkpt>
      <trkpt lat="43.28516" lon="6.23775">
        <ele>208.7</ele>
        <time>2023-06-28T07:06:23Z</time>
      </trkpt>
      <trkpt lat="43.28512" lon="6.23789">
        <ele>210.1</ele>
        <time>2023-06-28T07:06:33Z</time>
      </trkpt>
      <trkpt lat="43.28506" lon="6.23797">
        <ele>211.4</ele>
        <time>2023-06-28T07:06:43Z</time>
      </trkpt>
      <trkpt lat="43.28503" lon="6.23806">
        <ele>212.8</ele>
        <time>2023-06-28T07:06:53Z</time>
      </trkpt>
      <trkpt lat="43.28499" lon="6.23819">
        <ele>214.6</ele>
        <time>2023-06-28T07:07:03Z</time>
      </trkpt>
      <trkpt lat="43.28494" lon="6.2383">
        <ele>216.5</ele>
        <time>2023-06-28T07:07:13Z</time>
      </trkpt>
      <trkpt lat="43.2849" lon="6.23839">
        <ele>218.1</ele>
        <time>2023-06-28T07:07:23Z</time>
      </trkpt>
      <trkpt lat="43.28485" lon="6.23846">
        <ele>220</ele>
        <time>2023-06-28T07:07:33Z</time>
      </trkpt>
      <trkpt lat="43.28479" lon="6.23853">
        <ele>221.6</ele>
        <time>2023-06-28T07:07:43Z</time>
      </trkpt>
      <trkpt lat="43.28474" lon="6.2386">
        <ele>223</ele>
        <time>2023-06-28T07:07:53Z</time>
      </trkpt>
      <trkpt lat="43.28466" lon="6.23872">
        <ele>224.5</ele>
        <time>2023-06-28T07:08:03Z</time>
      </trkpt>
      <trkpt lat="43.2846" lon="6.23886">
        <ele>226.2</ele>
        <time>2023-06-28T07:08:13Z</time>
      </trkpt>
      <trkpt lat="43.28454" lon="6.23897">
        <ele>227.7</ele>
        <time>2023-06-28T07:08:23Z</time>
      </trkpt>
      <trkpt lat="43.28448" lon="6.23906">
        <ele>229.2</ele>
        <time>2023-06-28T07:08:33Z</time>
      </trkpt>
      <trkpt lat="43.28443" lon="6.23916">
        <ele>230.6</ele>
        <time>2023-06-28T07:08:43Z</time>
      </trkpt>
      <trkpt lat="43.28438" lon="6.23925">
        <ele>232.1</ele>
        <time>2023-06-28T07:08:53Z</time>
      </trkpt>
      <trkpt lat="43.28431" lon="6.23934">
        <ele>233.2</ele>
        <time>2023-06-28T07:09:03Z</time>
      </trkpt>
      <trkpt lat="43.28427" lon="6.2395">
        <ele>235</ele>
        <time>2023-06-28T07:09:13Z</time>
      </trkpt>
      <trkpt lat="43.28423" lon="6.23962">
        <ele>236.5</ele>
        <time>2023-06-28T07:09:23Z</time>
      </trkpt>
      <trkpt lat="43.28417" lon="6.23971">
        <ele>238.1</ele>
        <time>2023-06-28T07:09:33Z</time>
      </trkpt>
      <trkpt lat="43.28413" lon="6.23977">
        <ele>239.7</ele>
        <time>2023-06-28T07:09:43Z</time>
      </trkpt>
      <trkpt lat="43.28411" lon="6.2398">
        <ele>240.1</ele>
        <time>2023-06-28T07:09:53Z</time>
      </trkpt>
      <trkpt lat="43.28411" lon="6.23987">
        <ele>239.4</ele>
        <time>2023-06-28T07:10:03Z</time>
      </trkpt>
      <trkpt lat="43.28411" lon="6.2399">
        <ele>239.4</ele>
        <time>2023-06-28T07:10:13Z</time>
      </trkpt>
      <trkpt lat="43.28411" lon="6.23991">
        <ele>239.1</ele>
        <time>2023-06-28T07:10:23Z</time>
      </trkpt>
      <trkpt lat="43.2841" lon="6.23993">
        <ele>239</ele>
        <time>2023-06-28T07:10:33Z</time>
      </trkpt>
      <trkpt lat="43.28409" lon="6.23994">
        <ele>239.1</ele>
        <time>2023-06-28T07:10:43Z</time>
      </trkpt>
      <trkpt lat="43.28409" lon="6.23994">
        <ele>238.7</ele>
        <time>2023-06-28T07:10:53Z</time>
      </trkpt>
      <trkpt lat="43.28409" lon="6.23993">
        <ele>239.4</ele>
        <time>2023-06-28T07:11:03Z</time>
      </trkpt>
      <trkpt lat="43.28409" lon="6.23994">
        <ele>239.6</ele>
        <time>2023-06-28T07:11:13Z</time>
      </trkpt>
      <trkpt lat="43.28415" lon="6.24005">
        <ele>239.6</ele>
        <time>2023-06-28T07:11:23Z</time>
      </trkpt>
      <trkpt lat="43.2842" lon="6.24015">
        <ele>240.5</ele>
        <time>2023-06-28T07:11:33Z</time>
      </trkpt>
      <trkpt lat="43.28417" lon="6.24024">
        <ele>242.8</ele>
        <time>2023-06-28T07:11:43Z</time>
      </trkpt>
      <trkpt lat="43.28414" lon="6.24037">
        <ele>244.4</ele>
        <time>2023-06-28T07:11:53Z</time>
      </trkpt>
      <trkpt lat="43.2841" lon="6.24049">
        <ele>245.2</ele>
        <time>2023-06-28T07:12:03Z</time>
      </trkpt>
      <trkpt lat="43.28406" lon="6.24063">
        <ele>246.1</ele>
        <time>2023-06-28T07:12:13Z</time>
      </trkpt>
      <trkpt lat="43.284" lon="6.24078">
        <ele>244.6</ele>
        <time>2023-06-28T07:12:23Z</time>
      </trkpt>
      <trkpt lat="43.28392" lon="6.24089">
        <ele>243.2</ele>
        <time>2023-06-28T07:12:33Z</time>
      </trkpt>
      <trkpt lat="43.28382" lon="6.24103">
        <ele>241.7</ele>
        <time>2023-06-28T07:12:43Z</time>
      </trkpt>
      <trkpt lat="43.28382" lon="6.24106">
        <ele>240.7</ele>
        <time>2023-06-28T07:12:53Z</time>
      </trkpt>
      <trkpt lat="43.2838" lon="6.24107">
        <ele>241.6</ele>
        <time>2023-06-28T07:13:03Z</time>
      </trkpt>
      <trkpt lat="43.28371" lon="6.24117">
        <ele>241.5</ele>
        <time>2023-06-28T07:13:13Z</time>
      </trkpt>
      <trkpt lat="43.28362" lon="6.2413">
        <ele>240.7</ele>
        <time>2023-06-28T07:13:23Z</time>
      </trkpt>
      <trkpt lat="43.28355" lon="6.24144">
        <ele>241.3</ele>
        <time>2023-06-28T07:13:33Z</time>
      </trkpt>
      <trkpt lat="43.28347" lon="6.24156">
        <ele>241.5</ele>
        <time>2023-06-28T07:13:43Z</time>
      </trkpt>
      <trkpt lat="43.28339" lon="6.24172">
        <ele>240.5</ele>
        <time>2023-06-28T07:13:53Z</time>
      </trkpt>
      <trkpt lat="43.28332" lon="6.24188">
        <ele>238.7</ele>
        <time>2023-06-28T07:14:03Z</time>
      </trkpt>
      <trkpt lat="43.28323" lon="6.24201">
        <ele>237.7</ele>
        <time>2023-06-28T07:14:13Z</time>
      </trkpt>
      <trkpt lat="43.28311" lon="6.24213">
        <ele>236.1</ele>
        <time>2023-06-28T07:14:23Z</time>
      </trkpt>
      <trkpt lat="43.28301" lon="6.24226">
        <ele>236.2</ele>
        <time>2023-06-28T07:14:33Z</time>
      </trkpt>
      <trkpt lat="43.28294" lon="6.24239">
        <ele>235.8</ele>
        <time>2023-06-28T07:14:43Z</time>
      </trkpt>
      <trkpt lat="43.2829" lon="6.24255">
        <ele>235.9</ele>
        <time>2023-06-28T07:14:53Z</time>
      </trkpt>
      <trkpt lat="43.28284" lon="6.24275">
        <ele>235.7</ele>
        <time>2023-06-28T07:15:03Z</time>
      </trkpt>
      <trkpt lat="43.28278" lon="6.24291">
        <ele>235.4</ele>
        <time>2023-06-28T07:15:13Z</time>
      </trkpt>
      <trkpt lat="43.28274" lon="6.2431">
        <ele>235.5</ele>
        <time>2023-06-28T07:15:23Z</time>
      </trkpt>
      <trkpt lat="43.28272" lon="6.24325">
        <ele>236</ele>
        <time>2023-06-28T07:15:33Z</time>
      </trkpt>
      <trkpt lat="43.28272" lon="6.24339">
        <ele>236.7</ele>
        <time>2023-06-28T07:15:43Z</time>
      </trkpt>
      <trkpt lat="43.28276" lon="6.24359">
        <ele>238.4</ele>
        <time>2023-06-28T07:15:53Z</time>
      </trkpt>
      <trkpt lat="43.28283" lon="6.24375">
        <ele>240.2</ele>
        <time>2023-06-28T07:16:03Z</time>
      </trkpt>
      <trkpt lat="43.28289" lon="6.24386">
        <ele>241.9</ele>
        <time>2023-06-28T07:16:13Z</time>
      </trkpt>
      <trkpt lat="43.28294" lon="6.24399">
        <ele>243.9</ele>
        <time>2023-06-28T07:16:23Z</time>
      </trkpt>
      <trkpt lat="43.28298" lon="6.2441">
        <ele>246</ele>
        <time>2023-06-28T07:16:33Z</time>
      </trkpt>
      <trkpt lat="43.28302" lon="6.24423">
        <ele>248.1</ele>
        <time>2023-06-28T07:16:43Z</time>
      </trkpt>
      <trkpt lat="43.28302" lon="6.24436">
        <ele>249.3</ele>
        <time>2023-06-28T07:16:53Z</time>
      </trkpt>
      <trkpt lat="43.28297" lon="6.24445">
        <ele>250.9</ele>
        <time>2023-06-28T07:17:03Z</time>
      </trkpt>
      <trkpt lat="43.2829" lon="6.24454">
        <ele>252.9</ele>
        <time>2023-06-28T07:17:13Z</time>
      </trkpt>
      <trkpt lat="43.28281" lon="6.2446">
        <ele>254.5</ele>
        <time>2023-06-28T07:17:23Z</time>
      </trkpt>
      <trkpt lat="43.28272" lon="6.24467">
        <ele>255.8</ele>
        <time>2023-06-28T07:17:33Z</time>
      </trkpt>
      <trkpt lat="43.28263" lon="6.24477">
        <ele>257.2</ele>
        <time>2023-06-28T07:17:43Z</time>
      </trkpt>
      <trkpt lat="43.28254" lon="6.24491">
        <ele>258.1</ele>
        <time>2023-06-28T07:17:53Z</time>
      </trkpt>
      <trkpt lat="43.28245" lon="6.24504">
        <ele>258.9</ele>
        <time>2023-06-28T07:18:03Z</time>
      </trkpt>
      <trkpt lat="43.28237" lon="6.24517">
        <ele>260.2</ele>
        <time>2023-06-28T07:18:13Z</time>
      </trkpt>
      <trkpt lat="43.28231" lon="6.2453">
        <ele>261.2</ele>
        <time>2023-06-28T07:18:23Z</time>
      </trkpt>
      <trkpt lat="43.28225" lon="6.24544">
        <ele>262.2</ele>
        <time>2023-06-28T07:18:33Z</time>
      </trkpt>
      <trkpt lat="43.2822" lon="6.24556">
        <ele>263.7</ele>
        <time>2023-06-28T07:18:43Z</time>
      </trkpt>
      <trkpt lat="43.28214" lon="6.24568">
        <ele>265.2</ele>
        <time>2023-06-28T07:18:53Z</time>
      </trkpt>
      <trkpt lat="43.28207" lon="6.24577">
        <ele>267</ele>
        <time>2023-06-28T07:19:03Z</time>
      </trkpt>
      <trkpt lat="43.282" lon="6.24586">
        <ele>268.9</ele>
        <time>2023-06-28T07:19:13Z</time>
      </trkpt>
      <trkpt lat="43.28191" lon="6.24596">
        <ele>270.6</ele>
        <time>2023-06-28T07:19:23Z</time>
      </trkpt>
      <trkpt lat="43.28184" lon="6.24603">
        <ele>272.1</ele>
        <time>2023-06-28T07:19:33Z</time>
      </trkpt>
      <trkpt lat="43.28178" lon="6.24611">
        <ele>274.6</ele>
        <time>2023-06-28T07:19:43Z</time>
      </trkpt>
      <trkpt lat="43.28173" lon="6.24621">
        <ele>276.4</ele>
        <time>2023-06-28T07:19:53Z</time>
      </trkpt>
      <trkpt lat="43.28167" lon="6.24633">
        <ele>278.6</ele>
        <time>2023-06-28T07:20:03Z</time>
      </trkpt>
      <trkpt lat="43.28161" lon="6.24641">
        <ele>280.5</ele>
        <time>2023-06-28T07:20:13Z</time>
      </trkpt>
      <trkpt lat="43.28163" lon="6.24654">
        <ele>282.1</ele>
        <time>2023-06-28T07:20:23Z</time>
      </trkpt>
      <trkpt lat="43.28158" lon="6.2466">
        <ele>282.8</ele>
        <time>2023-06-28T07:20:33Z</time>
      </trkpt>
      <trkpt lat="43.28153" lon="6.24669">
        <ele>284.9</ele>
        <time>2023-06-28T07:20:43Z</time>
      </trkpt>
      <trkpt lat="43.28146" lon="6.2468">
        <ele>286.4</ele>
        <time>2023-06-28T07:20:53Z</time>
      </trkpt>
      <trkpt lat="43.28139" lon="6.24692">
        <ele>287.8</ele>
        <time>2023-06-28T07:21:03Z</time>
      </trkpt>
      <trkpt lat="43.28132" lon="6.24704">
        <ele>289.4</ele>
        <time>2023-06-28T07:21:13Z</time>
      </trkpt>
      <trkpt lat="43.28125" lon="6.24714">
        <ele>290.7</ele>
        <time>2023-06-28T07:21:23Z</time>
      </trkpt>
      <trkpt lat="43.28118" lon="6.24725">
        <ele>292.1</ele>
        <time>2023-06-28T07:21:33Z</time>
      </trkpt>
      <trkpt lat="43.28114" lon="6.24732">
        <ele>293</ele>
        <time>2023-06-28T07:21:43Z</time>
      </trkpt>
      <trkpt lat="43.28106" lon="6.24743">
        <ele>293.8</ele>
        <time>2023-06-28T07:21:53Z</time>
      </trkpt>
      <trkpt lat="43.28099" lon="6.24753">
        <ele>295.2</ele>
        <time>2023-06-28T07:22:03Z</time>
      </trkpt>
      <trkpt lat="43.28092" lon="6.24763">
        <ele>297</ele>
        <time>2023-06-28T07:22:13Z</time>
      </trkpt>
      <trkpt lat="43.28085" lon="6.24769">
        <ele>297.8</ele>
        <time>2023-06-28T07:22:23Z</time>
      </trkpt>
      <trkpt lat="43.28084" lon="6.24773">
        <ele>298.2</ele>
        <time>2023-06-28T07:22:33Z</time>
      </trkpt>
      <trkpt lat="43.28083" lon="6.24772">
        <ele>299.4</ele>
        <time>2023-06-28T07:22:43Z</time>
      </trkpt>
      <trkpt lat="43.28083" lon="6.24772">
        <ele>299.2</ele>
        <time>2023-06-28T07:22:53Z</time>
      </trkpt>
      <trkpt lat="43.28081" lon="6.24776">
        <ele>299.5</ele>
        <time>2023-06-28T07:23:03Z</time>
      </trkpt>
      <trkpt lat="43.28082" lon="6.24777">
        <ele>299.5</ele>
        <time>2023-06-28T07:23:13Z</time>
      </trkpt>
      <trkpt lat="43.28081" lon="6.24777">
        <ele>299.2</ele>
        <time>2023-06-28T07:23:23Z</time>
      </trkpt>
      <trkpt lat="43.28079" lon="6.24777">
        <ele>299.9</ele>
        <time>2023-06-28T07:23:33Z</time>
      </trkpt>
      <trkpt lat="43.28078" lon="6.24776">
        <ele>299.5</ele>
        <time>2023-06-28T07:23:43Z</time>
      </trkpt>
      <trkpt lat="43.28074" lon="6.24783">
        <ele>299.9</ele>
        <time>2023-06-28T07:23:53Z</time>
      </trkpt>
      <trkpt lat="43.28069" lon="6.24791">
        <ele>300.8</ele>
        <time>2023-06-28T07:24:03Z</time>
      </trkpt>
      <trkpt lat="43.28063" lon="6.24803">
        <ele>302</ele>
        <time>2023-06-28T07:24:13Z</time>
      </trkpt>
      <trkpt lat="43.28056" lon="6.24815">
        <ele>302.8</ele>
        <time>2023-06-28T07:24:23Z</time>
      </trkpt>
      <trkpt lat="43.28051" lon="6.24822">
        <ele>304.7</ele>
        <time>2023-06-28T07:24:33Z</time>
      </trkpt>
      <trkpt lat="43.28044" lon="6.24831">
        <ele>305.9</ele>
        <time>2023-06-28T07:24:43Z</time>
      </trkpt>
      <trkpt lat="43.28037" lon="6.24841">
        <ele>307.3</ele>
        <time>2023-06-28T07:24:53Z</time>
      </trkpt>
      <trkpt lat="43.28029" lon="6.24854">
        <ele>309.1</ele>
        <time>2023-06-28T07:25:03Z</time>
      </trkpt>
      <trkpt lat="43.28023" lon="6.24871">
        <ele>310.2</ele>
        <time>2023-06-28T07:25:13Z</time>
      </trkpt>
      <trkpt lat="43.28018" lon="6.24886">
        <ele>311.1</ele>
        <time>2023-06-28T07:25:23Z</time>
      </trkpt>
      <trkpt lat="43.28012" lon="6.249">
        <ele>311.8</ele>
        <time>2023-06-28T07:25:33Z</time>
      </trkpt>
      <trkpt lat="43.28008" lon="6.24915">
        <ele>313.1</ele>
        <time>2023-06-28T07:25:43Z</time>
      </trkpt>
      <trkpt lat="43.28006" lon="6.24923">
        <ele>313.9</ele>
        <time>2023-06-28T07:25:53Z</time>
      </trkpt>
      <trkpt lat="43.28005" lon="6.24924">
        <ele>314.4</ele>
        <time>2023-06-28T07:26:03Z</time>
      </trkpt>
      <trkpt lat="43.28004" lon="6.24927">
        <ele>314.1</ele>
        <time>2023-06-28T07:26:13Z</time>
      </trkpt>
      <trkpt lat="43.28004" lon="6.24937">
        <ele>314.2</ele>
        <time>2023-06-28T07:26:23Z</time>
      </trkpt>
      <trkpt lat="43.28001" lon="6.24951">
        <ele>314.8</ele>
        <time>2023-06-28T07:26:33Z</time>
      </trkpt>
      <trkpt lat="43.27997" lon="6.24964">
        <ele>315</ele>
        <time>2023-06-28T07:26:43Z</time>
      </trkpt>
      <trkpt lat="43.27991" lon="6.24979">
        <ele>314.6</ele>
        <time>2023-06-28T07:26:53Z</time>
      </trkpt>
      <trkpt lat="43.27984" lon="6.24992">
        <ele>315.5</ele>
        <time>2023-06-28T07:27:03Z</time>
      </trkpt>
      <trkpt lat="43.27975" lon="6.25006">
        <ele>315.8</ele>
        <time>2023-06-28T07:27:13Z</time>
      </trkpt>
      <trkpt lat="43.27965" lon="6.25016">
        <ele>316.2</ele>
        <time>2023-06-28T07:27:23Z</time>
      </trkpt>
      <trkpt lat="43.27955" lon="6.25024">
        <ele>317.5</ele>
        <time>2023-06-28T07:27:33Z</time>
      </trkpt>
      <trkpt lat="43.27944" lon="6.25035">
        <ele>318.3</ele>
        <time>2023-06-28T07:27:43Z</time>
      </trkpt>
      <trkpt lat="43.27933" lon="6.25045">
        <ele>319</ele>
        <time>2023-06-28T07:27:53Z</time>
      </trkpt>
      <trkpt lat="43.27923" lon="6.25057">
        <ele>320.3</ele>
        <time>2023-06-28T07:28:03Z</time>
      </trkpt>
      <trkpt lat="43.27912" lon="6.25067">
        <ele>321.4</ele>
        <time>2023-06-28T07:28:13Z</time>
      </trkpt>
      <trkpt lat="43.27903" lon="6.25077">
        <ele>322.5</ele>
        <time>2023-06-28T07:28:23Z</time>
      </trkpt>
      <trkpt lat="43.27894" lon="6.25088">
        <ele>324</ele>
        <time>2023-06-28T07:28:33Z</time>
      </trkpt>
      <trkpt lat="43.27885" lon="6.25098">
        <ele>325.3</ele>
        <time>2023-06-28T07:28:43Z</time>
      </trkpt>
      <trkpt lat="43.27878" lon="6.25112">
        <ele>326.6</ele>
        <time>2023-06-28T07:28:53Z</time>
      </trkpt>
      <trkpt lat="43.27872" lon="6.25131">
        <ele>327.5</ele>
        <time>2023-06-28T07:29:03Z</time>
      </trkpt>
      <trkpt lat="43.27868" lon="6.25147">
        <ele>328.9</ele>
        <time>2023-06-28T07:29:13Z</time>
      </trkpt>
      <trkpt lat="43.27863" lon="6.25163">
        <ele>330</ele>
        <time>2023-06-28T07:29:23Z</time>
      </trkpt>
      <trkpt lat="43.27858" lon="6.25178">
        <ele>330.7</ele>
        <time>2023-06-28T07:29:33Z</time>
      </trkpt>
      <trkpt lat="43.27856" lon="6.25195">
        <ele>331.7</ele>
        <time>2023-06-28T07:29:43Z</time>
      </trkpt>
      <trkpt lat="43.27853" lon="6.25211">
        <ele>332.3</ele>
        <time>2023-06-28T07:29:53Z</time>
      </trkpt>
      <trkpt lat="43.2785" lon="6.25227">
        <ele>333.4</ele>
        <time>2023-06-28T07:30:03Z</time>
      </trkpt>
      <trkpt lat="43.27846" lon="6.25244">
        <ele>334</ele>
        <time>2023-06-28T07:30:13Z</time>
      </trkpt>
      <trkpt lat="43.27841" lon="6.25262">
        <ele>335</ele>
        <time>2023-06-28T07:30:23Z</time>
      </trkpt>
      <trkpt lat="43.27839" lon="6.25274">
        <ele>335.8</ele>
        <time>2023-06-28T07:30:33Z</time>
      </trkpt>
      <trkpt lat="43.27841" lon="6.25286">
        <ele>337</ele>
        <time>2023-06-28T07:30:43Z</time>
      </trkpt>
      <trkpt lat="43.2784" lon="6.25299">
        <ele>338.6</ele>
        <time>2023-06-28T07:30:53Z</time>
      </trkpt>
      <trkpt lat="43.27839" lon="6.25312">
        <ele>340</ele>
        <time>2023-06-28T07:31:03Z</time>
      </trkpt>
      <trkpt lat="43.27841" lon="6.25318">
        <ele>340</ele>
        <time>2023-06-28T07:31:13Z</time>
      </trkpt>
      <trkpt lat="43.2784" lon="6.25323">
        <ele>340.4</ele>
        <time>2023-06-28T07:31:23Z</time>
      </trkpt>
      <trkpt lat="43.27834" lon="6.25334">
        <ele>341.4</ele>
        <time>2023-06-28T07:31:33Z</time>
      </trkpt>
      <trkpt lat="43.27829" lon="6.25346">
        <ele>342.7</ele>
        <time>2023-06-28T07:31:43Z</time>
      </trkpt>
      <trkpt lat="43.27825" lon="6.25361">
        <ele>343.7</ele>
        <time>2023-06-28T07:31:53Z</time>
      </trkpt>
      <trkpt lat="43.27822" lon="6.25374">
        <ele>344.7</ele>
        <time>2023-06-28T07:32:03Z</time>
      </trkpt>
      <trkpt lat="43.27819" lon="6.25387">
        <ele>345.7</ele>
        <time>2023-06-28T07:32:13Z</time>
      </trkpt>
      <trkpt lat="43.27817" lon="6.25403">
        <ele>346.6</ele>
        <time>2023-06-28T07:32:23Z</time>
      </trkpt>
      <trkpt lat="43.27815" lon="6.25417">
        <ele>347.5</ele>
        <time>2023-06-28T07:32:33Z</time>
      </trkpt>
      <trkpt lat="43.27816" lon="6.25432">
        <ele>348.7</ele>
        <time>2023-06-28T07:32:43Z</time>
      </trkpt>
      <trkpt lat="43.27815" lon="6.25446">
        <ele>349.4</ele>
        <time>2023-06-28T07:32:53Z</time>
      </trkpt>
      <trkpt lat="43.27814" lon="6.25461">
        <ele>350.6</ele>
        <time>2023-06-28T07:33:03Z</time>
      </trkpt>
      <trkpt lat="43.27815" lon="6.25479">
        <ele>351.3</ele>
        <time>2023-06-28T07:33:13Z</time>
      </trkpt>
      <trkpt lat="43.27816" lon="6.25492">
        <ele>352.3</ele>
        <time>2023-06-28T07:33:23Z</time>
      </trkpt>
      <trkpt lat="43.27816" lon="6.2551">
        <ele>353.2</ele>
        <time>2023-06-28T07:33:33Z</time>
      </trkpt>
      <trkpt lat="43.2782" lon="6.25527">
        <ele>353.9</ele>
        <time>2023-06-28T07:33:43Z</time>
      </trkpt>
      <trkpt lat="43.27824" lon="6.25536">
        <ele>355.1</ele>
        <time>2023-06-28T07:33:53Z</time>
      </trkpt>
      <trkpt lat="43.27832" lon="6.25546">
        <ele>355.8</ele>
        <time>2023-06-28T07:34:03Z</time>
      </trkpt>
      <trkpt lat="43.27842" lon="6.25554">
        <ele>356.2</ele>
        <time>2023-06-28T07:34:13Z</time>
      </trkpt>
      <trkpt lat="43.27856" lon="6.25569">
        <ele>356.9</ele>
        <time>2023-06-28T07:34:23Z</time>
      </trkpt>
      <trkpt lat="43.27867" lon="6.25578">
        <ele>358.1</ele>
        <time>2023-06-28T07:34:33Z</time>
      </trkpt>
      <trkpt lat="43.27877" lon="6.25589">
        <ele>358.1</ele>
        <time>2023-06-28T07:34:43Z</time>
      </trkpt>
      <trkpt lat="43.27888" lon="6.25597">
        <ele>359</ele>
        <time>2023-06-28T07:34:53Z</time>
      </trkpt>
      <trkpt lat="43.27902" lon="6.25603">
        <ele>358.4</ele>
        <time>2023-06-28T07:35:03Z</time>
      </trkpt>
      <trkpt lat="43.27917" lon="6.25613">
        <ele>359.6</ele>
        <time>2023-06-28T07:35:13Z</time>
      </trkpt>
      <trkpt lat="43.27932" lon="6.25619">
        <ele>360.8</ele>
        <time>2023-06-28T07:35:23Z</time>
      </trkpt>
      <trkpt lat="43.27943" lon="6.25625">
        <ele>361.3</ele>
        <time>2023-06-28T07:35:33Z</time>
      </trkpt>
      <trkpt lat="43.27957" lon="6.25632">
        <ele>362</ele>
        <time>2023-06-28T07:35:43Z</time>
      </trkpt>
      <trkpt lat="43.2797" lon="6.25639">
        <ele>362.8</ele>
        <time>2023-06-28T07:35:53Z</time>
      </trkpt>
      <trkpt lat="43.27982" lon="6.25646">
        <ele>363.9</ele>
        <time>2023-06-28T07:36:03Z</time>
      </trkpt>
      <trkpt lat="43.27995" lon="6.25649">
        <ele>365.1</ele>
        <time>2023-06-28T07:36:13Z</time>
      </trkpt>
      <trkpt lat="43.28007" lon="6.25652">
        <ele>366.5</ele>
        <time>2023-06-28T07:36:23Z</time>
      </trkpt>
      <trkpt lat="43.28017" lon="6.25657">
        <ele>368</ele>
        <time>2023-06-28T07:36:33Z</time>
      </trkpt>
      <trkpt lat="43.28013" lon="6.25663">
        <ele>369.2</ele>
        <time>2023-06-28T07:36:43Z</time>
      </trkpt>
      <trkpt lat="43.28005" lon="6.25669">
        <ele>370.8</ele>
        <time>2023-06-28T07:36:53Z</time>
      </trkpt>
      <trkpt lat="43.27998" lon="6.25676">
        <ele>372.5</ele>
        <time>2023-06-28T07:37:03Z</time>
      </trkpt>
      <trkpt lat="43.27994" lon="6.25683">
        <ele>373.6</ele>
        <time>2023-06-28T07:37:13Z</time>
      </trkpt>
      <trkpt lat="43.27991" lon="6.25689">
        <ele>374.4</ele>
        <time>2023-06-28T07:37:23Z</time>
      </trkpt>
      <trkpt lat="43.27989" lon="6.25695">
        <ele>374.6</ele>
        <time>2023-06-28T07:37:33Z</time>
      </trkpt>
      <trkpt lat="43.27989" lon="6.25697">
        <ele>374.5</ele>
        <time>2023-06-28T07:37:43Z</time>
      </trkpt>
      <trkpt lat="43.27988" lon="6.25698">
        <ele>375.1</ele>
        <time>2023-06-28T07:37:53Z</time>
      </trkpt>
      <trkpt lat="43.27987" lon="6.25699">
        <ele>375</ele>
        <time>2023-06-28T07:38:03Z</time>
      </trkpt>
      <trkpt lat="43.27989" lon="6.257">
        <ele>375.2</ele>
        <time>2023-06-28T07:38:13Z</time>
      </trkpt>
      <trkpt lat="43.2799" lon="6.25695">
        <ele>375.5</ele>
        <time>2023-06-28T07:38:23Z</time>
      </trkpt>
      <trkpt lat="43.27988" lon="6.25687">
        <ele>375.7</ele>
        <time>2023-06-28T07:38:33Z</time>
      </trkpt>
      <trkpt lat="43.2798" lon="6.25682">
        <ele>376.7</ele>
        <time>2023-06-28T07:38:43Z</time>
      </trkpt>
      <trkpt lat="43.27973" lon="6.25675">
        <ele>377.9</ele>
        <time>2023-06-28T07:38:53Z</time>
      </trkpt>
      <trkpt lat="43.27961" lon="6.25668">
        <ele>379</ele>
        <time>2023-06-28T07:39:03Z</time>
      </trkpt>
      <trkpt lat="43.27946" lon="6.25662">
        <ele>380.1</ele>
        <time>2023-06-28T07:39:13Z</time>
      </trkpt>
      <trkpt lat="43.27934" lon="6.25657">
        <ele>381</ele>
        <time>2023-06-28T07:39:23Z</time>
      </trkpt>
      <trkpt lat="43.27925" lon="6.2565">
        <ele>382.1</ele>
        <time>2023-06-28T07:39:33Z</time>
      </trkpt>
      <trkpt lat="43.2791" lon="6.25645">
        <ele>382.8</ele>
        <time>2023-06-28T07:39:43Z</time>
      </trkpt>
      <trkpt lat="43.279" lon="6.25644">
        <ele>383.9</ele>
        <time>2023-06-28T07:39:53Z</time>
      </trkpt>
      <trkpt lat="43.27892" lon="6.25646">
        <ele>385.4</ele>
        <time>2023-06-28T07:40:03Z</time>
      </trkpt>
      <trkpt lat="43.27884" lon="6.25645">
        <ele>386.3</ele>
        <time>2023-06-28T07:40:13Z</time>
      </trkpt>
      <trkpt lat="43.27872" lon="6.2564">
        <ele>386.5</ele>
        <time>2023-06-28T07:40:23Z</time>
      </trkpt>
      <trkpt lat="43.27864" lon="6.25639">
        <ele>387.8</ele>
        <time>2023-06-28T07:40:33Z</time>
      </trkpt>
      <trkpt lat="43.27856" lon="6.25641">
        <ele>389.3</ele>
        <time>2023-06-28T07:40:43Z</time>
      </trkpt>
      <trkpt lat="43.27847" lon="6.25643">
        <ele>390.3</ele>
        <time>2023-06-28T07:40:53Z</time>
      </trkpt>
      <trkpt lat="43.27836" lon="6.25642">
        <ele>390.9</ele>
        <time>2023-06-28T07:41:03Z</time>
      </trkpt>
      <trkpt lat="43.27825" lon="6.25638">
        <ele>391.7</ele>
        <time>2023-06-28T07:41:13Z</time>
      </trkpt>
      <trkpt lat="43.27814" lon="6.25633">
        <ele>392.7</ele>
        <time>2023-06-28T07:41:23Z</time>
      </trkpt>
      <trkpt lat="43.27803" lon="6.25628">
        <ele>393.9</ele>
        <time>2023-06-28T07:41:33Z</time>
      </trkpt>
      <trkpt lat="43.27793" lon="6.25625">
        <ele>394.5</ele>
        <time>2023-06-28T07:41:43Z</time>
      </trkpt>
      <trkpt lat="43.27781" lon="6.2562">
        <ele>395.5</ele>
        <time>2023-06-28T07:41:53Z</time>
      </trkpt>
      <trkpt lat="43.2777" lon="6.25616">
        <ele>396.7</ele>
        <time>2023-06-28T07:42:03Z</time>
      </trkpt>
      <trkpt lat="43.27759" lon="6.25611">
        <ele>397.5</ele>
        <time>2023-06-28T07:42:13Z</time>
      </trkpt>
      <trkpt lat="43.27747" lon="6.25608">
        <ele>398.5</ele>
        <time>2023-06-28T07:42:23Z</time>
      </trkpt>
      <trkpt lat="43.27733" lon="6.25606">
        <ele>398.9</ele>
        <time>2023-06-28T07:42:33Z</time>
      </trkpt>
      <trkpt lat="43.27722" lon="6.25605">
        <ele>399.5</ele>
        <time>2023-06-28T07:42:43Z</time>
      </trkpt>
      <trkpt lat="43.27711" lon="6.25609">
        <ele>400.6</ele>
        <time>2023-06-28T07:42:53Z</time>
      </trkpt>
      <trkpt lat="43.27701" lon="6.25617">
        <ele>400.9</ele>
        <time>2023-06-28T07:43:03Z</time>
      </trkpt>
      <trkpt lat="43.27694" lon="6.25625">
        <ele>401.9</ele>
        <time>2023-06-28T07:43:13Z</time>
      </trkpt>
      <trkpt lat="43.27688" lon="6.25634">
        <ele>403.4</ele>
        <time>2023-06-28T07:43:23Z</time>
      </trkpt>
      <trkpt lat="43.2768" lon="6.2564">
        <ele>404.8</ele>
        <time>2023-06-28T07:43:33Z</time>
      </trkpt>
      <trkpt lat="43.27676" lon="6.25656">
        <ele>406.4</ele>
        <time>2023-06-28T07:43:43Z</time>
      </trkpt>
      <trkpt lat="43.27673" lon="6.25669">
        <ele>407.8</ele>
        <time>2023-06-28T07:43:53Z</time>
      </trkpt>
      <trkpt lat="43.27669" lon="6.25682">
        <ele>409.4</ele>
        <time>2023-06-28T07:44:03Z</time>
      </trkpt>
      <trkpt lat="43.27665" lon="6.25691">
        <ele>411.1</ele>
        <time>2023-06-28T07:44:13Z</time>
      </trkpt>
      <trkpt lat="43.27658" lon="6.257">
        <ele>412.8</ele>
        <time>2023-06-28T07:44:23Z</time>
      </trkpt>
      <trkpt lat="43.2765" lon="6.25702">
        <ele>414.4</ele>
        <time>2023-06-28T07:44:33Z</time>
      </trkpt>
      <trkpt lat="43.27641" lon="6.25706">
        <ele>415.8</ele>
        <time>2023-06-28T07:44:43Z</time>
      </trkpt>
      <trkpt lat="43.27631" lon="6.25712">
        <ele>417.5</ele>
        <time>2023-06-28T07:44:53Z</time>
      </trkpt>
      <trkpt lat="43.27622" lon="6.25717">
        <ele>419.1</ele>
        <time>2023-06-28T07:45:03Z</time>
      </trkpt>
      <trkpt lat="43.27616" lon="6.25724">
        <ele>420.3</ele>
        <time>2023-06-28T07:45:13Z</time>
      </trkpt>
      <trkpt lat="43.27615" lon="6.25732">
        <ele>420.2</ele>
        <time>2023-06-28T07:45:23Z</time>
      </trkpt>
      <trkpt lat="43.27605" lon="6.25733">
        <ele>421.5</ele>
        <time>2023-06-28T07:45:33Z</time>
      </trkpt>
      <trkpt lat="43.27593" lon="6.25733">
        <ele>422.1</ele>
        <time>2023-06-28T07:45:43Z</time>
      </trkpt>
      <trkpt lat="43.2758" lon="6.25733">
        <ele>422.5</ele>
        <time>2023-06-28T07:45:53Z</time>
      </trkpt>
      <trkpt lat="43.27572" lon="6.25733">
        <ele>423</ele>
        <time>2023-06-28T07:46:03Z</time>
      </trkpt>
      <trkpt lat="43.27566" lon="6.25737">
        <ele>423.4</ele>
        <time>2023-06-28T07:46:13Z</time>
      </trkpt>
      <trkpt lat="43.27566" lon="6.25739">
        <ele>423.5</ele>
        <time>2023-06-28T07:46:23Z</time>
      </trkpt>
      <trkpt lat="43.27563" lon="6.25743">
        <ele>423.8</ele>
        <time>2023-06-28T07:46:33Z</time>
      </trkpt>
      <trkpt lat="43.27555" lon="6.25743">
        <ele>424.2</ele>
        <time>2023-06-28T07:46:43Z</time>
      </trkpt>
      <trkpt lat="43.27546" lon="6.25744">
        <ele>425.2</ele>
        <time>2023-06-28T07:46:53Z</time>
      </trkpt>
      <trkpt lat="43.27534" lon="6.25744">
        <ele>426</ele>
        <time>2023-06-28T07:47:03Z</time>
      </trkpt>
      <trkpt lat="43.27522" lon="6.25741">
        <ele>426.8</ele>
        <time>2023-06-28T07:47:13Z</time>
      </trkpt>
      <trkpt lat="43.27511" lon="6.25745">
        <ele>428</ele>
        <time>2023-06-28T07:47:23Z</time>
      </trkpt>
      <trkpt lat="43.27499" lon="6.25746">
        <ele>429.2</ele>
        <time>2023-06-28T07:47:33Z</time>
      </trkpt>
      <trkpt lat="43.27488" lon="6.25754">
        <ele>430.4</ele>
        <time>2023-06-28T07:47:43Z</time>
      </trkpt>
      <trkpt lat="43.2748" lon="6.25761">
        <ele>431.8</ele>
        <time>2023-06-28T07:47:53Z</time>
      </trkpt>
      <trkpt lat="43.27476" lon="6.25766">
        <ele>432.4</ele>
        <time>2023-06-28T07:48:03Z</time>
      </trkpt>
      <trkpt lat="43.27476" lon="6.25768">
        <ele>433.2</ele>
        <time>2023-06-28T07:48:13Z</time>
      </trkpt>
      <trkpt lat="43.27476" lon="6.25771">
        <ele>433</ele>
        <time>2023-06-28T07:48:23Z</time>
      </trkpt>
      <trkpt lat="43.27477" lon="6.25772">
        <ele>433.1</ele>
        <time>2023-06-28T07:48:33Z</time>
      </trkpt>
      <trkpt lat="43.27476" lon="6.25775">
        <ele>434.2</ele>
        <time>2023-06-28T07:48:43Z</time>
      </trkpt>
      <trkpt lat="43.27476" lon="6.25776">
        <ele>433.9</ele>
        <time>2023-06-28T07:48:53Z</time>
      </trkpt>
      <trkpt lat="43.27476" lon="6.25777">
        <ele>433.8</ele>
        <time>2023-06-28T07:49:03Z</time>
      </trkpt>
      <trkpt lat="43.27475" lon="6.25774">
        <ele>434.2</ele>
        <time>2023-06-28T07:49:13Z</time>
      </trkpt>
      <trkpt lat="43.27475" lon="6.25774">
        <ele>434</ele>
        <time>2023-06-28T07:49:23Z</time>
      </trkpt>
      <trkpt lat="43.27474" lon="6.25773">
        <ele>434.8</ele>
        <time>2023-06-28T07:49:33Z</time>
      </trkpt>
      <trkpt lat="43.27474" lon="6.25773">
        <ele>434.8</ele>
        <time>2023-06-28T07:49:43Z</time>
      </trkpt>
      <trkpt lat="43.27473" lon="6.25774">
        <ele>434.7</ele>
        <time>2023-06-28T07:49:53Z</time>
      </trkpt>
      <trkpt lat="43.27474" lon="6.25774">
        <ele>434.7</ele>
        <time>2023-06-28T07:50:03Z</time>
      </trkpt>
      <trkpt lat="43.27474" lon="6.25776">
        <ele>434.5</ele>
        <time>2023-06-28T07:50:13Z</time>
      </trkpt>
      <trkpt lat="43.27474" lon="6.25772">
        <ele>435.1</ele>
        <time>2023-06-28T07:50:23Z</time>
      </trkpt>
      <trkpt lat="43.27475" lon="6.25773">
        <ele>435.2</ele>
        <time>2023-06-28T07:50:33Z</time>
      </trkpt>
      <trkpt lat="43.27474" lon="6.25772">
        <ele>435.4</ele>
        <time>2023-06-28T07:50:43Z</time>
      </trkpt>
      <trkpt lat="43.27469" lon="6.2577">
        <ele>435.8</ele>
        <time>2023-06-28T07:50:53Z</time>
      </trkpt>
      <trkpt lat="43.27461" lon="6.25772">
        <ele>436.4</ele>
        <time>2023-06-28T07:51:03Z</time>
      </trkpt>
      <trkpt lat="43.27456" lon="6.25774">
        <ele>437.7</ele>
        <time>2023-06-28T07:51:13Z</time>
      </trkpt>
      <trkpt lat="43.27449" lon="6.25772">
        <ele>439.4</ele>
        <time>2023-06-28T07:51:23Z</time>
      </trkpt>
      <trkpt lat="43.2744" lon="6.2577">
        <ele>440.9</ele>
        <time>2023-06-28T07:51:33Z</time>
      </trkpt>
      <trkpt lat="43.27429" lon="6.25769">
        <ele>441.7</ele>
        <time>2023-06-28T07:51:43Z</time>
      </trkpt>
      <trkpt lat="43.2742" lon="6.2577">
        <ele>443.2</ele>
        <time>2023-06-28T07:51:53Z</time>
      </trkpt>
      <trkpt lat="43.27408" lon="6.25772">
        <ele>444.5</ele>
        <time>2023-06-28T07:52:03Z</time>
      </trkpt>
      <trkpt lat="43.27396" lon="6.25775">
        <ele>445.7</ele>
        <time>2023-06-28T07:52:13Z</time>
      </trkpt>
      <trkpt lat="43.27387" lon="6.25782">
        <ele>447.2</ele>
        <time>2023-06-28T07:52:23Z</time>
      </trkpt>
      <trkpt lat="43.27377" lon="6.25788">
        <ele>449</ele>
        <time>2023-06-28T07:52:33Z</time>
      </trkpt>
      <trkpt lat="43.27368" lon="6.25795">
        <ele>449.8</ele>
        <time>2023-06-28T07:52:43Z</time>
      </trkpt>
      <trkpt lat="43.27361" lon="6.25799">
        <ele>451.2</ele>
        <time>2023-06-28T07:52:53Z</time>
      </trkpt>
      <trkpt lat="43.2735" lon="6.25802">
        <ele>452.4</ele>
        <time>2023-06-28T07:53:03Z</time>
      </trkpt>
      <trkpt lat="43.27337" lon="6.25803">
        <ele>453.8</ele>
        <time>2023-06-28T07:53:13Z</time>
      </trkpt>
      <trkpt lat="43.27324" lon="6.25806">
        <ele>454.4</ele>
        <time>2023-06-28T07:53:23Z</time>
      </trkpt>
      <trkpt lat="43.27315" lon="6.25807">
        <ele>456.5</ele>
        <time>2023-06-28T07:53:33Z</time>
      </trkpt>
      <trkpt lat="43.27308" lon="6.25809">
        <ele>457.6</ele>
        <time>2023-06-28T07:53:43Z</time>
      </trkpt>
      <trkpt lat="43.27298" lon="6.2581">
        <ele>459</ele>
        <time>2023-06-28T07:53:53Z</time>
      </trkpt>
      <trkpt lat="43.27287" lon="6.2581">
        <ele>460.3</ele>
        <time>2023-06-28T07:54:03Z</time>
      </trkpt>
      <trkpt lat="43.27276" lon="6.25809">
        <ele>461.4</ele>
        <time>2023-06-28T07:54:13Z</time>
      </trkpt>
      <trkpt lat="43.2727" lon="6.25811">
        <ele>462.3</ele>
        <time>2023-06-28T07:54:23Z</time>
      </trkpt>
      <trkpt lat="43.27255" lon="6.25809">
        <ele>463.6</ele>
        <time>2023-06-28T07:54:33Z</time>
      </trkpt>
      <trkpt lat="43.27245" lon="6.25806">
        <ele>464.7</ele>
        <time>2023-06-28T07:54:43Z</time>
      </trkpt>
      <trkpt lat="43.27232" lon="6.25804">
        <ele>465.7</ele>
        <time>2023-06-28T07:54:53Z</time>
      </trkpt>
      <trkpt lat="43.2722" lon="6.258">
        <ele>466.8</ele>
        <time>2023-06-28T07:55:03Z</time>
      </trkpt>
      <trkpt lat="43.27211" lon="6.25796">
        <ele>467.7</ele>
        <time>2023-06-28T07:55:13Z</time>
      </trkpt>
      <trkpt lat="43.27198" lon="6.25792">
        <ele>468.5</ele>
        <time>2023-06-28T07:55:23Z</time>
      </trkpt>
      <trkpt lat="43.27188" lon="6.25787">
        <ele>469.9</ele>
        <time>2023-06-28T07:55:33Z</time>
      </trkpt>
      <trkpt lat="43.2718" lon="6.25785">
        <ele>471.3</ele>
        <time>2023-06-28T07:55:43Z</time>
      </trkpt>
      <trkpt lat="43.27166" lon="6.25779">
        <ele>472.3</ele>
        <time>2023-06-28T07:55:53Z</time>
      </trkpt>
      <trkpt lat="43.27156" lon="6.25777">
        <ele>473.5</ele>
        <time>2023-06-28T07:56:03Z</time>
      </trkpt>
      <trkpt lat="43.27144" lon="6.25774">
        <ele>475.2</ele>
        <time>2023-06-28T07:56:13Z</time>
      </trkpt>
      <trkpt lat="43.27137" lon="6.25768">
        <ele>476.5</ele>
        <time>2023-06-28T07:56:23Z</time>
      </trkpt>
      <trkpt lat="43.27124" lon="6.25763">
        <ele>477.4</ele>
        <time>2023-06-28T07:56:33Z</time>
      </trkpt>
      <trkpt lat="43.27112" lon="6.25758">
        <ele>478.5</ele>
        <time>2023-06-28T07:56:43Z</time>
      </trkpt>
      <trkpt lat="43.27104" lon="6.25753">
        <ele>479.4</ele>
        <time>2023-06-28T07:56:53Z</time>
      </trkpt>
      <trkpt lat="43.27097" lon="6.25746">
        <ele>480.2</ele>
        <time>2023-06-28T07:57:03Z</time>
      </trkpt>
      <trkpt lat="43.27091" lon="6.25741">
        <ele>481.3</ele>
        <time>2023-06-28T07:57:13Z</time>
      </trkpt>
      <trkpt lat="43.27085" lon="6.25731">
        <ele>483</ele>
        <time>2023-06-28T07:57:23Z</time>
      </trkpt>
      <trkpt lat="43.27076" lon="6.25716">
        <ele>484.5</ele>
        <time>2023-06-28T07:57:33Z</time>
      </trkpt>
      <trkpt lat="43.27068" lon="6.25707">
        <ele>486.4</ele>
        <time>2023-06-28T07:57:43Z</time>
      </trkpt>
      <trkpt lat="43.27057" lon="6.25695">
        <ele>487.8</ele>
        <time>2023-06-28T07:57:53Z</time>
      </trkpt>
      <trkpt lat="43.27045" lon="6.25686">
        <ele>489.4</ele>
        <time>2023-06-28T07:58:03Z</time>
      </trkpt>
      <trkpt lat="43.27036" lon="6.25677">
        <ele>490.5</ele>
        <time>2023-06-28T07:58:13Z</time>
      </trkpt>
      <trkpt lat="43.27028" lon="6.25667">
        <ele>491.4</ele>
        <time>2023-06-28T07:58:23Z</time>
      </trkpt>
      <trkpt lat="43.27018" lon="6.25655">
        <ele>492.3</ele>
        <time>2023-06-28T07:58:33Z</time>
      </trkpt>
      <trkpt lat="43.27009" lon="6.25642">
        <ele>492.9</ele>
        <time>2023-06-28T07:58:43Z</time>
      </trkpt>
      <trkpt lat="43.27" lon="6.25629">
        <ele>493.6</ele>
        <time>2023-06-28T07:58:53Z</time>
      </trkpt>
      <trkpt lat="43.26993" lon="6.25616">
        <ele>494.4</ele>
        <time>2023-06-28T07:59:03Z</time>
      </trkpt>
      <trkpt lat="43.26989" lon="6.25605">
        <ele>495.4</ele>
        <time>2023-06-28T07:59:13Z</time>
      </trkpt>
      <trkpt lat="43.26984" lon="6.25595">
        <ele>496.7</ele>
        <time>2023-06-28T07:59:23Z</time>
      </trkpt>
      <trkpt lat="43.26978" lon="6.25579">
        <ele>497.5</ele>
        <time>2023-06-28T07:59:33Z</time>
      </trkpt>
      <trkpt lat="43.26972" lon="6.25565">
        <ele>498.9</ele>
        <time>2023-06-28T07:59:43Z</time>
      </trkpt>
      <trkpt lat="43.26965" lon="6.25552">
        <ele>500.2</ele>
        <time>2023-06-28T07:59:53Z</time>
      </trkpt>
      <trkpt lat="43.26959" lon="6.25539">
        <ele>501.7</ele>
        <time>2023-06-28T08:00:03Z</time>
      </trkpt>
      <trkpt lat="43.26954" lon="6.25525">
        <ele>503.3</ele>
        <time>2023-06-28T08:00:13Z</time>
      </trkpt>
      <trkpt lat="43.26947" lon="6.25514">
        <ele>505</ele>
        <time>2023-06-28T08:00:23Z</time>
      </trkpt>
      <trkpt lat="43.26943" lon="6.25503">
        <ele>506.9</ele>
        <time>2023-06-28T08:00:33Z</time>
      </trkpt>
      <trkpt lat="43.26939" lon="6.25501">
        <ele>507.7</ele>
        <time>2023-06-28T08:00:43Z</time>
      </trkpt>
      <trkpt lat="43.26938" lon="6.25503">
        <ele>507.8</ele>
        <time>2023-06-28T08:00:53Z</time>
      </trkpt>
      <trkpt lat="43.26935" lon="6.25504">
        <ele>508.2</ele>
        <time>2023-06-28T08:01:03Z</time>
      </trkpt>
      <trkpt lat="43.26932" lon="6.25504">
        <ele>508.3</ele>
        <time>2023-06-28T08:01:13Z</time>
      </trkpt>
      <trkpt lat="43.26931" lon="6.25505">
        <ele>508.5</ele>
        <time>2023-06-28T08:01:23Z</time>
      </trkpt>
      <trkpt lat="43.26929" lon="6.25506">
        <ele>508.5</ele>
        <time>2023-06-28T08:01:33Z</time>
      </trkpt>
      <trkpt lat="43.2693" lon="6.25507">
        <ele>508.8</ele>
        <time>2023-06-28T08:01:43Z</time>
      </trkpt>
      <trkpt lat="43.26931" lon="6.25507">
        <ele>508.9</ele>
        <time>2023-06-28T08:01:53Z</time>
      </trkpt>
      <trkpt lat="43.26931" lon="6.25506">
        <ele>508.8</ele>
        <time>2023-06-28T08:02:03Z</time>
      </trkpt>
      <trkpt lat="43.26933" lon="6.25506">
        <ele>509.2</ele>
        <time>2023-06-28T08:02:13Z</time>
      </trkpt>
      <trkpt lat="43.26932" lon="6.25502">
        <ele>508.9</ele>
        <time>2023-06-28T08:02:23Z</time>
      </trkpt>
      <trkpt lat="43.26931" lon="6.25498">
        <ele>509.5</ele>
        <time>2023-06-28T08:02:33Z</time>
      </trkpt>
      <trkpt lat="43.26931" lon="6.25498">
        <ele>509.5</ele>
        <time>2023-06-28T08:02:43Z</time>
      </trkpt>
      <trkpt lat="43.26931" lon="6.25498">
        <ele>509.8</ele>
        <time>2023-06-28T08:02:53Z</time>
      </trkpt>
      <trkpt lat="43.2693" lon="6.25499">
        <ele>509.6</ele>
        <time>2023-06-28T08:03:03Z</time>
      </trkpt>
      <trkpt lat="43.26929" lon="6.25501">
        <ele>509.4</ele>
        <time>2023-06-28T08:03:13Z</time>
      </trkpt>
      <trkpt lat="43.26931" lon="6.255">
        <ele>509.5</ele>
        <time>2023-06-28T08:03:23Z</time>
      </trkpt>
      <trkpt lat="43.26932" lon="6.25501">
        <ele>509.9</ele>
        <time>2023-06-28T08:03:33Z</time>
      </trkpt>
      <trkpt lat="43.26929" lon="6.25502">
        <ele>509.8</ele>
        <time>2023-06-28T08:03:43Z</time>
      </trkpt>
      <trkpt lat="43.26929" lon="6.25503">
        <ele>510</ele>
        <time>2023-06-28T08:03:53Z</time>
      </trkpt>
      <trkpt lat="43.26929" lon="6.25503">
        <ele>510</ele>
        <time>2023-06-28T08:04:03Z</time>
      </trkpt>
      <trkpt lat="43.26928" lon="6.25505">
        <ele>509.7</ele>
        <time>2023-06-28T08:04:13Z</time>
      </trkpt>
      <trkpt lat="43.26926" lon="6.25508">
        <ele>509.9</ele>
        <time>2023-06-28T08:04:23Z</time>
      </trkpt>
      <trkpt lat="43.26925" lon="6.25509">
        <ele>509.8</ele>
        <time>2023-06-28T08:04:33Z</time>
      </trkpt>
      <trkpt lat="43.26924" lon="6.25509">
        <ele>509.8</ele>
        <time>2023-06-28T08:04:43Z</time>
      </trkpt>
      <trkpt lat="43.26923" lon="6.25505">
        <ele>510.4</ele>
        <time>2023-06-28T08:04:53Z</time>
      </trkpt>
      <trkpt lat="43.26921" lon="6.25499">
        <ele>510.2</ele>
        <time>2023-06-28T08:05:03Z</time>
      </trkpt>
      <trkpt lat="43.26917" lon="6.25495">
        <ele>510.1</ele>
        <time>2023-06-28T08:05:13Z</time>
      </trkpt>
      <trkpt lat="43.26909" lon="6.25492">
        <ele>511</ele>
        <time>2023-06-28T08:05:23Z</time>
      </trkpt>
      <trkpt lat="43.26902" lon="6.25492">
        <ele>511</ele>
        <time>2023-06-28T08:05:33Z</time>
      </trkpt>
      <trkpt lat="43.26897" lon="6.25492">
        <ele>513.3</ele>
        <time>2023-06-28T08:05:43Z</time>
      </trkpt>
      <trkpt lat="43.26898" lon="6.25492">
        <ele>513.8</ele>
        <time>2023-06-28T08:05:53Z</time>
      </trkpt>
      <trkpt lat="43.26897" lon="6.25486">
        <ele>513.9</ele>
        <time>2023-06-28T08:06:03Z</time>
      </trkpt>
      <trkpt lat="43.26891" lon="6.25483">
        <ele>515</ele>
        <time>2023-06-28T08:06:13Z</time>
      </trkpt>
      <trkpt lat="43.26893" lon="6.25482">
        <ele>515.2</ele>
        <time>2023-06-28T08:06:23Z</time>
      </trkpt>
      <trkpt lat="43.26896" lon="6.25475">
        <ele>516.2</ele>
        <time>2023-06-28T08:06:33Z</time>
      </trkpt>
      <trkpt lat="43.26892" lon="6.2547">
        <ele>517</ele>
        <time>2023-06-28T08:06:43Z</time>
      </trkpt>
      <trkpt lat="43.2689" lon="6.25464">
        <ele>517.5</ele>
        <time>2023-06-28T08:06:53Z</time>
      </trkpt>
      <trkpt lat="43.26885" lon="6.25458">
        <ele>518.9</ele>
        <time>2023-06-28T08:07:03Z</time>
      </trkpt>
      <trkpt lat="43.2688" lon="6.25451">
        <ele>520.1</ele>
        <time>2023-06-28T08:07:13Z</time>
      </trkpt>
      <trkpt lat="43.26877" lon="6.25443">
        <ele>520.7</ele>
        <time>2023-06-28T08:07:23Z</time>
      </trkpt>
      <trkpt lat="43.2688" lon="6.25444">
        <ele>520.5</ele>
        <time>2023-06-28T08:07:33Z</time>
      </trkpt>
      <trkpt lat="43.2688" lon="6.2544">
        <ele>521</ele>
        <time>2023-06-28T08:07:43Z</time>
      </trkpt>
      <trkpt lat="43.26873" lon="6.25431">
        <ele>522.3</ele>
        <time>2023-06-28T08:07:53Z</time>
      </trkpt>
      <trkpt lat="43.2687" lon="6.2542">
        <ele>522.1</ele>
        <time>2023-06-28T08:08:03Z</time>
      </trkpt>
      <trkpt lat="43.26866" lon="6.25415">
        <ele>521.9</ele>
        <time>2023-06-28T08:08:13Z</time>
      </trkpt>
      <trkpt lat="43.26851" lon="6.25411">
        <ele>522.6</ele>
        <time>2023-06-28T08:08:23Z</time>
      </trkpt>
      <trkpt lat="43.26847" lon="6.25404">
        <ele>523.3</ele>
        <time>2023-06-28T08:08:33Z</time>
      </trkpt>
      <trkpt lat="43.26838" lon="6.25391">
        <ele>523.9</ele>
        <time>2023-06-28T08:08:43Z</time>
      </trkpt>
      <trkpt lat="43.26827" lon="6.25381">
        <ele>524.6</ele>
        <time>2023-06-28T08:08:53Z</time>
      </trkpt>
      <trkpt lat="43.26823" lon="6.25372">
        <ele>525</ele>
        <time>2023-06-28T08:09:03Z</time>
      </trkpt>
      <trkpt lat="43.26818" lon="6.25363">
        <ele>524.9</ele>
        <time>2023-06-28T08:09:13Z</time>
      </trkpt>
      <trkpt lat="43.2681" lon="6.25356">
        <ele>524.9</ele>
        <time>2023-06-28T08:09:23Z</time>
      </trkpt>
      <trkpt lat="43.26798" lon="6.25356">
        <ele>525</ele>
        <time>2023-06-28T08:09:33Z</time>
      </trkpt>
      <trkpt lat="43.26789" lon="6.25352">
        <ele>524.9</ele>
        <time>2023-06-28T08:09:43Z</time>
      </trkpt>
      <trkpt lat="43.26779" lon="6.25345">
        <ele>524.7</ele>
        <time>2023-06-28T08:09:53Z</time>
      </trkpt>
      <trkpt lat="43.26772" lon="6.25342">
        <ele>525.1</ele>
        <time>2023-06-28T08:10:03Z</time>
      </trkpt>
      <trkpt lat="43.26763" lon="6.2534">
        <ele>525.8</ele>
        <time>2023-06-28T08:10:13Z</time>
      </trkpt>
      <trkpt lat="43.26751" lon="6.25336">
        <ele>526.9</ele>
        <time>2023-06-28T08:10:23Z</time>
      </trkpt>
      <trkpt lat="43.26741" lon="6.2533">
        <ele>527.4</ele>
        <time>2023-06-28T08:10:33Z</time>
      </trkpt>
      <trkpt lat="43.2673" lon="6.25324">
        <ele>528.4</ele>
        <time>2023-06-28T08:10:43Z</time>
      </trkpt>
      <trkpt lat="43.2672" lon="6.25321">
        <ele>528.7</ele>
        <time>2023-06-28T08:10:53Z</time>
      </trkpt>
      <trkpt lat="43.26717" lon="6.25317">
        <ele>529.5</ele>
        <time>2023-06-28T08:11:03Z</time>
      </trkpt>
      <trkpt lat="43.26707" lon="6.25316">
        <ele>530.2</ele>
        <time>2023-06-28T08:11:13Z</time>
      </trkpt>
      <trkpt lat="43.26701" lon="6.25314">
        <ele>531.4</ele>
        <time>2023-06-28T08:11:23Z</time>
      </trkpt>
      <trkpt lat="43.26695" lon="6.25312">
        <ele>532.6</ele>
        <time>2023-06-28T08:11:33Z</time>
      </trkpt>
      <trkpt lat="43.26685" lon="6.25306">
        <ele>533.7</ele>
        <time>2023-06-28T08:11:43Z</time>
      </trkpt>
      <trkpt lat="43.26673" lon="6.25303">
        <ele>536</ele>
        <time>2023-06-28T08:11:56Z</time>
      </trkpt>
      <trkpt lat="43.26664" lon="6.25305">
        <ele>537.8</ele>
        <time>2023-06-28T08:12:06Z</time>
      </trkpt>
      <trkpt lat="43.26658" lon="6.25305">
        <ele>539.1</ele>
        <time>2023-06-28T08:12:16Z</time>
      </trkpt>
      <trkpt lat="43.26648" lon="6.25308">
        <ele>540.7</ele>
        <time>2023-06-28T08:12:26Z</time>
      </trkpt>
      <trkpt lat="43.26645" lon="6.25307">
        <ele>542.5</ele>
        <time>2023-06-28T08:12:36Z</time>
      </trkpt>
      <trkpt lat="43.26639" lon="6.25303">
        <ele>544</ele>
        <time>2023-06-28T08:12:46Z</time>
      </trkpt>
      <trkpt lat="43.26629" lon="6.25301">
        <ele>545.5</ele>
        <time>2023-06-28T08:12:56Z</time>
      </trkpt>
      <trkpt lat="43.26621" lon="6.253">
        <ele>547.4</ele>
        <time>2023-06-28T08:13:06Z</time>
      </trkpt>
      <trkpt lat="43.26617" lon="6.25304">
        <ele>549.5</ele>
        <time>2023-06-28T08:13:16Z</time>
      </trkpt>
      <trkpt lat="43.26615" lon="6.253">
        <ele>551.6</ele>
        <time>2023-06-28T08:13:26Z</time>
      </trkpt>
      <trkpt lat="43.26616" lon="6.25301">
        <ele>553.6</ele>
        <time>2023-06-28T08:13:36Z</time>
      </trkpt>
      <trkpt lat="43.26614" lon="6.25307">
        <ele>555.1</ele>
        <time>2023-06-28T08:13:46Z</time>
      </trkpt>
      <trkpt lat="43.26601" lon="6.253">
        <ele>557</ele>
        <time>2023-06-28T08:14:01Z</time>
      </trkpt>
      <trkpt lat="43.26598" lon="6.25297">
        <ele>559.7</ele>
        <time>2023-06-28T08:14:11Z</time>
      </trkpt>
      <trkpt lat="43.266" lon="6.25287">
        <ele>560.9</ele>
        <time>2023-06-28T08:14:21Z</time>
      </trkpt>
      <trkpt lat="43.26591" lon="6.25291">
        <ele>562.5</ele>
        <time>2023-06-28T08:14:31Z</time>
      </trkpt>
      <trkpt lat="43.26586" lon="6.25292">
        <ele>564.4</ele>
        <time>2023-06-28T08:14:41Z</time>
      </trkpt>
      <trkpt lat="43.26575" lon="6.25295">
        <ele>565.7</ele>
        <time>2023-06-28T08:14:51Z</time>
      </trkpt>
      <trkpt lat="43.2657" lon="6.25299">
        <ele>567.1</ele>
        <time>2023-06-28T08:15:01Z</time>
      </trkpt>
      <trkpt lat="43.26564" lon="6.25305">
        <ele>568.8</ele>
        <time>2023-06-28T08:15:11Z</time>
      </trkpt>
      <trkpt lat="43.26563" lon="6.253">
        <ele>570.8</ele>
        <time>2023-06-28T08:15:21Z</time>
      </trkpt>
      <trkpt lat="43.26557" lon="6.253">
        <ele>572.4</ele>
        <time>2023-06-28T08:15:31Z</time>
      </trkpt>
      <trkpt lat="43.26565" lon="6.25304">
        <ele>574.1</ele>
        <time>2023-06-28T08:15:41Z</time>
      </trkpt>
      <trkpt lat="43.26556" lon="6.25305">
        <ele>576</ele>
        <time>2023-06-28T08:15:51Z</time>
      </trkpt>
      <trkpt lat="43.26549" lon="6.25306">
        <ele>577.9</ele>
        <time>2023-06-28T08:16:01Z</time>
      </trkpt>
      <trkpt lat="43.2654" lon="6.2531">
        <ele>580</ele>
        <time>2023-06-28T08:16:11Z</time>
      </trkpt>
      <trkpt lat="43.26535" lon="6.2531">
        <ele>581.6</ele>
        <time>2023-06-28T08:16:21Z</time>
      </trkpt>
      <trkpt lat="43.26533" lon="6.25307">
        <ele>581.8</ele>
        <time>2023-06-28T08:16:31Z</time>
      </trkpt>
      <trkpt lat="43.2653" lon="6.25305">
        <ele>581.9</ele>
        <time>2023-06-28T08:16:41Z</time>
      </trkpt>
      <trkpt lat="43.26527" lon="6.25303">
        <ele>582</ele>
        <time>2023-06-28T08:16:51Z</time>
      </trkpt>
      <trkpt lat="43.26524" lon="6.25301">
        <ele>581.2</ele>
        <time>2023-06-28T08:17:01Z</time>
      </trkpt>
      <trkpt lat="43.26524" lon="6.25305">
        <ele>580.1</ele>
        <time>2023-06-28T08:17:11Z</time>
      </trkpt>
      <trkpt lat="43.26516" lon="6.25303">
        <ele>581.1</ele>
        <time>2023-06-28T08:17:21Z</time>
      </trkpt>
      <trkpt lat="43.26515" lon="6.25299">
        <ele>579.9</ele>
        <time>2023-06-28T08:17:31Z</time>
      </trkpt>
      <trkpt lat="43.26515" lon="6.25297">
        <ele>580.6</ele>
        <time>2023-06-28T08:17:41Z</time>
      </trkpt>
      <trkpt lat="43.26514" lon="6.25297">
        <ele>579.9</ele>
        <time>2023-06-28T08:17:51Z</time>
      </trkpt>
      <trkpt lat="43.26516" lon="6.253">
        <ele>580.1</ele>
        <time>2023-06-28T08:18:01Z</time>
      </trkpt>
      <trkpt lat="43.26516" lon="6.253">
        <ele>579.7</ele>
        <time>2023-06-28T08:18:11Z</time>
      </trkpt>
      <trkpt lat="43.26515" lon="6.25301">
        <ele>580.2</ele>
        <time>2023-06-28T08:18:21Z</time>
      </trkpt>
      <trkpt lat="43.26516" lon="6.25302">
        <ele>580.2</ele>
        <time>2023-06-28T08:18:31Z</time>
      </trkpt>
      <trkpt lat="43.26515" lon="6.25301">
        <ele>579.9</ele>
        <time>2023-06-28T08:18:41Z</time>
      </trkpt>
      <trkpt lat="43.26515" lon="6.253">
        <ele>580</ele>
        <time>2023-06-28T08:18:51Z</time>
      </trkpt>
      <trkpt lat="43.26514" lon="6.25299">
        <ele>580.1</ele>
        <time>2023-06-28T08:19:01Z</time>
      </trkpt>
      <trkpt lat="43.26514" lon="6.25298">
        <ele>579.9</ele>
        <time>2023-06-28T08:19:11Z</time>
      </trkpt>
      <trkpt lat="43.26514" lon="6.25298">
        <ele>579.9</ele>
        <time>2023-06-28T08:19:21Z</time>
      </trkpt>
      <trkpt lat="43.26515" lon="6.25298">
        <ele>579.9</ele>
        <time>2023-06-28T08:19:31Z</time>
      </trkpt>
      <trkpt lat="43.26515" lon="6.25298">
        <ele>579.8</ele>
        <time>2023-06-28T08:19:41Z</time>
      </trkpt>
      <trkpt lat="43.26514" lon="6.25298">
        <ele>579.3</ele>
        <time>2023-06-28T08:19:51Z</time>
      </trkpt>
      <trkpt lat="43.26514" lon="6.25298">
        <ele>579.2</ele>
        <time>2023-06-28T08:20:01Z</time>
      </trkpt>
      <trkpt lat="43.26513" lon="6.25298">
        <ele>579.3</ele>
        <time>2023-06-28T08:20:11Z</time>
      </trkpt>
      <trkpt lat="43.26513" lon="6.253">
        <ele>579.6</ele>
        <time>2023-06-28T08:20:21Z</time>
      </trkpt>
      <trkpt lat="43.26514" lon="6.25303">
        <ele>579.4</ele>
        <time>2023-06-28T08:20:31Z</time>
      </trkpt>
      <trkpt lat="43.26516" lon="6.25305">
        <ele>578.9</ele>
        <time>2023-06-28T08:20:41Z</time>
      </trkpt>
      <trkpt lat="43.26516" lon="6.25306">
        <ele>579.4</ele>
        <time>2023-06-28T08:20:51Z</time>
      </trkpt>
      <trkpt lat="43.26518" lon="6.25306">
        <ele>579.7</ele>
        <time>2023-06-28T08:21:01Z</time>
      </trkpt>
      <trkpt lat="43.26518" lon="6.25305">
        <ele>579.6</ele>
        <time>2023-06-28T08:21:11Z</time>
      </trkpt>
      <trkpt lat="43.26516" lon="6.25304">
        <ele>579.6</ele>
        <time>2023-06-28T08:21:21Z</time>
      </trkpt>
      <trkpt lat="43.26516" lon="6.253">
        <ele>579.7</ele>
        <time>2023-06-28T08:21:31Z</time>
      </trkpt>
      <trkpt lat="43.26515" lon="6.25298">
        <ele>579.3</ele>
        <time>2023-06-28T08:21:41Z</time>
      </trkpt>
      <trkpt lat="43.26512" lon="6.25299">
        <ele>579.5</ele>
        <time>2023-06-28T08:21:51Z</time>
      </trkpt>
      <trkpt lat="43.26512" lon="6.25298">
        <ele>579.4</ele>
        <time>2023-06-28T08:22:01Z</time>
      </trkpt>
      <trkpt lat="43.26512" lon="6.25296">
        <ele>579.1</ele>
        <time>2023-06-28T08:22:11Z</time>
      </trkpt>
      <trkpt lat="43.26511" lon="6.25295">
        <ele>579.3</ele>
        <time>2023-06-28T08:22:21Z</time>
      </trkpt>
      <trkpt lat="43.26509" lon="6.25296">
        <ele>579.2</ele>
        <time>2023-06-28T08:22:31Z</time>
      </trkpt>
      <trkpt lat="43.26509" lon="6.25295">
        <ele>579.4</ele>
        <time>2023-06-28T08:22:41Z</time>
      </trkpt>
      <trkpt lat="43.26508" lon="6.25296">
        <ele>579.2</ele>
        <time>2023-06-28T08:22:51Z</time>
      </trkpt>
      <trkpt lat="43.26507" lon="6.25292">
        <ele>578.9</ele>
        <time>2023-06-28T08:23:01Z</time>
      </trkpt>
      <trkpt lat="43.2651" lon="6.25293">
        <ele>580.1</ele>
        <time>2023-06-28T08:23:11Z</time>
      </trkpt>
      <trkpt lat="43.26512" lon="6.25294">
        <ele>579.8</ele>
        <time>2023-06-28T08:23:21Z</time>
      </trkpt>
      <trkpt lat="43.26513" lon="6.25294">
        <ele>580</ele>
        <time>2023-06-28T08:23:31Z</time>
      </trkpt>
      <trkpt lat="43.26513" lon="6.2529">
        <ele>579.8</ele>
        <time>2023-06-28T08:23:41Z</time>
      </trkpt>
      <trkpt lat="43.26512" lon="6.25286">
        <ele>580</ele>
        <time>2023-06-28T08:23:51Z</time>
      </trkpt>
      <trkpt lat="43.26512" lon="6.25286">
        <ele>579.7</ele>
        <time>2023-06-28T08:24:01Z</time>
      </trkpt>
      <trkpt lat="43.26511" lon="6.25284">
        <ele>579.7</ele>
        <time>2023-06-28T08:24:11Z</time>
      </trkpt>
      <trkpt lat="43.26511" lon="6.25284">
        <ele>579.4</ele>
        <time>2023-06-28T08:24:21Z</time>
      </trkpt>
      <trkpt lat="43.2651" lon="6.25285">
        <ele>579.1</ele>
        <time>2023-06-28T08:24:31Z</time>
      </trkpt>
      <trkpt lat="43.26509" lon="6.25289">
        <ele>579.4</ele>
        <time>2023-06-28T08:24:41Z</time>
      </trkpt>
      <trkpt lat="43.26509" lon="6.25292">
        <ele>579.6</ele>
        <time>2023-06-28T08:24:51Z</time>
      </trkpt>
      <trkpt lat="43.2651" lon="6.25295">
        <ele>579.5</ele>
        <time>2023-06-28T08:25:01Z</time>
      </trkpt>
      <trkpt lat="43.2651" lon="6.25299">
        <ele>579.6</ele>
        <time>2023-06-28T08:25:11Z</time>
      </trkpt>
      <trkpt lat="43.26509" lon="6.25308">
        <ele>579.6</ele>
        <time>2023-06-28T08:25:21Z</time>
      </trkpt>
      <trkpt lat="43.2651" lon="6.25311">
        <ele>579.6</ele>
        <time>2023-06-28T08:25:31Z</time>
      </trkpt>
      <trkpt lat="43.26507" lon="6.25312">
        <ele>580.2</ele>
        <time>2023-06-28T08:25:41Z</time>
      </trkpt>
      <trkpt lat="43.26509" lon="6.25316">
        <ele>579.3</ele>
        <time>2023-06-28T08:25:51Z</time>
      </trkpt>
      <trkpt lat="43.26511" lon="6.25314">
        <ele>580.5</ele>
        <time>2023-06-28T08:26:01Z</time>
      </trkpt>
      <trkpt lat="43.26513" lon="6.25321">
        <ele>581</ele>
        <time>2023-06-28T08:26:11Z</time>
      </trkpt>
      <trkpt lat="43.26507" lon="6.25329">
        <ele>580.4</ele>
        <time>2023-06-28T08:26:21Z</time>
      </trkpt>
      <trkpt lat="43.26509" lon="6.25331">
        <ele>580.5</ele>
        <time>2023-06-28T08:26:31Z</time>
      </trkpt>
      <trkpt lat="43.26508" lon="6.25334">
        <ele>580</ele>
        <time>2023-06-28T08:26:41Z</time>
      </trkpt>
      <trkpt lat="43.26507" lon="6.2534">
        <ele>580.8</ele>
        <time>2023-06-28T08:26:51Z</time>
      </trkpt>
      <trkpt lat="43.26505" lon="6.25342">
        <ele>580.8</ele>
        <time>2023-06-28T08:27:01Z</time>
      </trkpt>
      <trkpt lat="43.26497" lon="6.25346">
        <ele>579.8</ele>
        <time>2023-06-28T08:27:11Z</time>
      </trkpt>
      <trkpt lat="43.26495" lon="6.25364">
        <ele>578.3</ele>
        <time>2023-06-28T08:27:21Z</time>
      </trkpt>
      <trkpt lat="43.26487" lon="6.25374">
        <ele>577.9</ele>
        <time>2023-06-28T08:27:31Z</time>
      </trkpt>
      <trkpt lat="43.26481" lon="6.25382">
        <ele>578.1</ele>
        <time>2023-06-28T08:27:41Z</time>
      </trkpt>
      <trkpt lat="43.26472" lon="6.25388">
        <ele>577.4</ele>
        <time>2023-06-28T08:27:51Z</time>
      </trkpt>
      <trkpt lat="43.26463" lon="6.25393">
        <ele>575.8</ele>
        <time>2023-06-28T08:28:01Z</time>
      </trkpt>
      <trkpt lat="43.26456" lon="6.25408">
        <ele>573.1</ele>
        <time>2023-06-28T08:28:11Z</time>
      </trkpt>
      <trkpt lat="43.26457" lon="6.25427">
        <ele>570</ele>
        <time>2023-06-28T08:28:22Z</time>
      </trkpt>
      <trkpt lat="43.26451" lon="6.25442">
        <ele>567</ele>
        <time>2023-06-28T08:28:32Z</time>
      </trkpt>
      <trkpt lat="43.2644" lon="6.25456">
        <ele>565.3</ele>
        <time>2023-06-28T08:28:42Z</time>
      </trkpt>
      <trkpt lat="43.2643" lon="6.25462">
        <ele>563.4</ele>
        <time>2023-06-28T08:28:52Z</time>
      </trkpt>
      <trkpt lat="43.26419" lon="6.25471">
        <ele>561</ele>
        <time>2023-06-28T08:29:02Z</time>
      </trkpt>
      <trkpt lat="43.26405" lon="6.25472">
        <ele>559.7</ele>
        <time>2023-06-28T08:29:12Z</time>
      </trkpt>
      <trkpt lat="43.26389" lon="6.25472">
        <ele>556.1</ele>
        <time>2023-06-28T08:29:22Z</time>
      </trkpt>
      <trkpt lat="43.26381" lon="6.2547">
        <ele>555.2</ele>
        <time>2023-06-28T08:29:34Z</time>
      </trkpt>
      <trkpt lat="43.26378" lon="6.25484">
        <ele>551.6</ele>
        <time>2023-06-28T08:29:44Z</time>
      </trkpt>
      <trkpt lat="43.26372" lon="6.25491">
        <ele>551.7</ele>
        <time>2023-06-28T08:29:54Z</time>
      </trkpt>
      <trkpt lat="43.26365" lon="6.25496">
        <ele>549.4</ele>
        <time>2023-06-28T08:30:04Z</time>
      </trkpt>
      <trkpt lat="43.26355" lon="6.25506">
        <ele>548.7</ele>
        <time>2023-06-28T08:30:14Z</time>
      </trkpt>
      <trkpt lat="43.26342" lon="6.25514">
        <ele>545.5</ele>
        <time>2023-06-28T08:30:24Z</time>
      </trkpt>
      <trkpt lat="43.26322" lon="6.25516">
        <ele>543.4</ele>
        <time>2023-06-28T08:30:34Z</time>
      </trkpt>
      <trkpt lat="43.26315" lon="6.25533">
        <ele>540.4</ele>
        <time>2023-06-28T08:30:44Z</time>
      </trkpt>
      <trkpt lat="43.2631" lon="6.25537">
        <ele>539.9</ele>
        <time>2023-06-28T08:30:54Z</time>
      </trkpt>
      <trkpt lat="43.26307" lon="6.25536">
        <ele>540</ele>
        <time>2023-06-28T08:31:04Z</time>
      </trkpt>
      <trkpt lat="43.26305" lon="6.25532">
        <ele>539.6</ele>
        <time>2023-06-28T08:31:14Z</time>
      </trkpt>
      <trkpt lat="43.26293" lon="6.25525">
        <ele>537.6</ele>
        <time>2023-06-28T08:31:24Z</time>
      </trkpt>
      <trkpt lat="43.26283" lon="6.25517">
        <ele>535.9</ele>
        <time>2023-06-28T08:31:34Z</time>
      </trkpt>
      <trkpt lat="43.26278" lon="6.25513">
        <ele>534.4</ele>
        <time>2023-06-28T08:31:44Z</time>
      </trkpt>
      <trkpt lat="43.26273" lon="6.25512">
        <ele>532.7</ele>
        <time>2023-06-28T08:31:54Z</time>
      </trkpt>
      <trkpt lat="43.2627" lon="6.25515">
        <ele>532</ele>
        <time>2023-06-28T08:32:04Z</time>
      </trkpt>
      <trkpt lat="43.2627" lon="6.2552">
        <ele>532.2</ele>
        <time>2023-06-28T08:32:14Z</time>
      </trkpt>
      <trkpt lat="43.26269" lon="6.25521">
        <ele>532</ele>
        <time>2023-06-28T08:32:24Z</time>
      </trkpt>
      <trkpt lat="43.26269" lon="6.25521">
        <ele>532.4</ele>
        <time>2023-06-28T08:32:34Z</time>
      </trkpt>
      <trkpt lat="43.26269" lon="6.25521">
        <ele>531.7</ele>
        <time>2023-06-28T08:32:44Z</time>
      </trkpt>
      <trkpt lat="43.26269" lon="6.25521">
        <ele>531.5</ele>
        <time>2023-06-28T08:32:54Z</time>
      </trkpt>
      <trkpt lat="43.26269" lon="6.2552">
        <ele>531.9</ele>
        <time>2023-06-28T08:33:04Z</time>
      </trkpt>
      <trkpt lat="43.26263" lon="6.25524">
        <ele>531.4</ele>
        <time>2023-06-28T08:33:14Z</time>
      </trkpt>
      <trkpt lat="43.2626" lon="6.25536">
        <ele>530</ele>
        <time>2023-06-28T08:33:24Z</time>
      </trkpt>
      <trkpt lat="43.26259" lon="6.25549">
        <ele>529.2</ele>
        <time>2023-06-28T08:33:34Z</time>
      </trkpt>
      <trkpt lat="43.26259" lon="6.25561">
        <ele>528.2</ele>
        <time>2023-06-28T08:33:44Z</time>
      </trkpt>
      <trkpt lat="43.2626" lon="6.25572">
        <ele>526.8</ele>
        <time>2023-06-28T08:33:54Z</time>
      </trkpt>
      <trkpt lat="43.26263" lon="6.25584">
        <ele>525.4</ele>
        <time>2023-06-28T08:34:04Z</time>
      </trkpt>
      <trkpt lat="43.26265" lon="6.25589">
        <ele>525.3</ele>
        <time>2023-06-28T08:34:14Z</time>
      </trkpt>
      <trkpt lat="43.26265" lon="6.2559">
        <ele>525.3</ele>
        <time>2023-06-28T08:34:24Z</time>
      </trkpt>
      <trkpt lat="43.26265" lon="6.25588">
        <ele>525</ele>
        <time>2023-06-28T08:34:34Z</time>
      </trkpt>
      <trkpt lat="43.26266" lon="6.25588">
        <ele>524.6</ele>
        <time>2023-06-28T08:34:44Z</time>
      </trkpt>
      <trkpt lat="43.26266" lon="6.25588">
        <ele>524.8</ele>
        <time>2023-06-28T08:34:54Z</time>
      </trkpt>
      <trkpt lat="43.26267" lon="6.25587">
        <ele>524.5</ele>
        <time>2023-06-28T08:35:04Z</time>
      </trkpt>
      <trkpt lat="43.26264" lon="6.25585">
        <ele>524.5</ele>
        <time>2023-06-28T08:35:14Z</time>
      </trkpt>
      <trkpt lat="43.26268" lon="6.25578">
        <ele>524.6</ele>
        <time>2023-06-28T08:35:24Z</time>
      </trkpt>
      <trkpt lat="43.26266" lon="6.25571">
        <ele>525.8</ele>
        <time>2023-06-28T08:35:34Z</time>
      </trkpt>
      <trkpt lat="43.26266" lon="6.25566">
        <ele>526.8</ele>
        <time>2023-06-28T08:35:44Z</time>
      </trkpt>
      <trkpt lat="43.26263" lon="6.25555">
        <ele>528.3</ele>
        <time>2023-06-28T08:35:54Z</time>
      </trkpt>
      <trkpt lat="43.26263" lon="6.25541">
        <ele>529.6</ele>
        <time>2023-06-28T08:36:04Z</time>
      </trkpt>
      <trkpt lat="43.26266" lon="6.25525">
        <ele>530.6</ele>
        <time>2023-06-28T08:36:14Z</time>
      </trkpt>
      <trkpt lat="43.26271" lon="6.25517">
        <ele>531.9</ele>
        <time>2023-06-28T08:36:24Z</time>
      </trkpt>
      <trkpt lat="43.26279" lon="6.25511">
        <ele>532.9</ele>
        <time>2023-06-28T08:36:34Z</time>
      </trkpt>
      <trkpt lat="43.26286" lon="6.25509">
        <ele>533.7</ele>
        <time>2023-06-28T08:36:44Z</time>
      </trkpt>
      <trkpt lat="43.26294" lon="6.25506">
        <ele>534.8</ele>
        <time>2023-06-28T08:36:54Z</time>
      </trkpt>
      <trkpt lat="43.26304" lon="6.25501">
        <ele>535</ele>
        <time>2023-06-28T08:37:05Z</time>
      </trkpt>
      <trkpt lat="43.26309" lon="6.25495">
        <ele>535.9</ele>
        <time>2023-06-28T08:37:15Z</time>
      </trkpt>
      <trkpt lat="43.26314" lon="6.2549">
        <ele>536.6</ele>
        <time>2023-06-28T08:37:25Z</time>
      </trkpt>
      <trkpt lat="43.26322" lon="6.25485">
        <ele>537.4</ele>
        <time>2023-06-28T08:37:35Z</time>
      </trkpt>
      <trkpt lat="43.26333" lon="6.25474">
        <ele>538.2</ele>
        <time>2023-06-28T08:37:45Z</time>
      </trkpt>
      <trkpt lat="43.26344" lon="6.25463">
        <ele>539</ele>
        <time>2023-06-28T08:37:55Z</time>
      </trkpt>
      <trkpt lat="43.26353" lon="6.25455">
        <ele>539.5</ele>
        <time>2023-06-28T08:38:05Z</time>
      </trkpt>
      <trkpt lat="43.26364" lon="6.25444">
        <ele>540.7</ele>
        <time>2023-06-28T08:38:16Z</time>
      </trkpt>
      <trkpt lat="43.26375" lon="6.25437">
        <ele>541.8</ele>
        <time>2023-06-28T08:38:28Z</time>
      </trkpt>
      <trkpt lat="43.26382" lon="6.25434">
        <ele>542.6</ele>
        <time>2023-06-28T08:38:38Z</time>
      </trkpt>
      <trkpt lat="43.2639" lon="6.25408">
        <ele>543.6</ele>
        <time>2023-06-28T08:38:48Z</time>
      </trkpt>
      <trkpt lat="43.26402" lon="6.25402">
        <ele>544</ele>
        <time>2023-06-28T08:38:58Z</time>
      </trkpt>
      <trkpt lat="43.26411" lon="6.25384">
        <ele>544.5</ele>
        <time>2023-06-28T08:39:08Z</time>
      </trkpt>
      <trkpt lat="43.26422" lon="6.2537">
        <ele>544.4</ele>
        <time>2023-06-28T08:39:18Z</time>
      </trkpt>
      <trkpt lat="43.26428" lon="6.2536">
        <ele>544.2</ele>
        <time>2023-06-28T08:39:28Z</time>
      </trkpt>
      <trkpt lat="43.26433" lon="6.25348">
        <ele>544.3</ele>
        <time>2023-06-28T08:39:38Z</time>
      </trkpt>
      <trkpt lat="43.26432" lon="6.2534">
        <ele>544.4</ele>
        <time>2023-06-28T08:39:48Z</time>
      </trkpt>
      <trkpt lat="43.26437" lon="6.25325">
        <ele>544</ele>
        <time>2023-06-28T08:39:58Z</time>
      </trkpt>
      <trkpt lat="43.26438" lon="6.25298">
        <ele>543.2</ele>
        <time>2023-06-28T08:40:08Z</time>
      </trkpt>
      <trkpt lat="43.26436" lon="6.25271">
        <ele>542.2</ele>
        <time>2023-06-28T08:40:20Z</time>
      </trkpt>
      <trkpt lat="43.26435" lon="6.25247">
        <ele>540.8</ele>
        <time>2023-06-28T08:40:30Z</time>
      </trkpt>
      <trkpt lat="43.26435" lon="6.2523">
        <ele>539.9</ele>
        <time>2023-06-28T08:40:40Z</time>
      </trkpt>
      <trkpt lat="43.26427" lon="6.25205">
        <ele>538.2</ele>
        <time>2023-06-28T08:40:52Z</time>
      </trkpt>
      <trkpt lat="43.26424" lon="6.25185">
        <ele>536.7</ele>
        <time>2023-06-28T08:41:02Z</time>
      </trkpt>
      <trkpt lat="43.26426" lon="6.2517">
        <ele>535.3</ele>
        <time>2023-06-28T08:41:12Z</time>
      </trkpt>
      <trkpt lat="43.26422" lon="6.25163">
        <ele>533.5</ele>
        <time>2023-06-28T08:41:22Z</time>
      </trkpt>
      <trkpt lat="43.26415" lon="6.25146">
        <ele>532.4</ele>
        <time>2023-06-28T08:41:32Z</time>
      </trkpt>
      <trkpt lat="43.2641" lon="6.25127">
        <ele>531.4</ele>
        <time>2023-06-28T08:41:42Z</time>
      </trkpt>
      <trkpt lat="43.26409" lon="6.25108">
        <ele>529.5</ele>
        <time>2023-06-28T08:41:52Z</time>
      </trkpt>
      <trkpt lat="43.2641" lon="6.25099">
        <ele>527.7</ele>
        <time>2023-06-28T08:42:02Z</time>
      </trkpt>
      <trkpt lat="43.26403" lon="6.25081">
        <ele>526.2</ele>
        <time>2023-06-28T08:42:12Z</time>
      </trkpt>
      <trkpt lat="43.26401" lon="6.25062">
        <ele>524.5</ele>
        <time>2023-06-28T08:42:22Z</time>
      </trkpt>
      <trkpt lat="43.26394" lon="6.2505">
        <ele>523.5</ele>
        <time>2023-06-28T08:42:32Z</time>
      </trkpt>
      <trkpt lat="43.26393" lon="6.25033">
        <ele>522.3</ele>
        <time>2023-06-28T08:42:42Z</time>
      </trkpt>
      <trkpt lat="43.26391" lon="6.25015">
        <ele>520.3</ele>
        <time>2023-06-28T08:42:52Z</time>
      </trkpt>
      <trkpt lat="43.26382" lon="6.25003">
        <ele>519.1</ele>
        <time>2023-06-28T08:43:02Z</time>
      </trkpt>
      <trkpt lat="43.26376" lon="6.2499">
        <ele>518</ele>
        <time>2023-06-28T08:43:12Z</time>
      </trkpt>
      <trkpt lat="43.26374" lon="6.24976">
        <ele>517.6</ele>
        <time>2023-06-28T08:43:22Z</time>
      </trkpt>
      <trkpt lat="43.26362" lon="6.24979">
        <ele>517.6</ele>
        <time>2023-06-28T08:43:32Z</time>
      </trkpt>
      <trkpt lat="43.26363" lon="6.24977">
        <ele>517.6</ele>
        <time>2023-06-28T08:43:42Z</time>
      </trkpt>
      <trkpt lat="43.26361" lon="6.24957">
        <ele>517.6</ele>
        <time>2023-06-28T08:43:52Z</time>
      </trkpt>
      <trkpt lat="43.26363" lon="6.24941">
        <ele>516.7</ele>
        <time>2023-06-28T08:44:02Z</time>
      </trkpt>
      <trkpt lat="43.26366" lon="6.24929">
        <ele>515.6</ele>
        <time>2023-06-28T08:44:12Z</time>
      </trkpt>
      <trkpt lat="43.26368" lon="6.24911">
        <ele>513.8</ele>
        <time>2023-06-28T08:44:22Z</time>
      </trkpt>
      <trkpt lat="43.26369" lon="6.24893">
        <ele>512.5</ele>
        <time>2023-06-28T08:44:32Z</time>
      </trkpt>
      <trkpt lat="43.26373" lon="6.24883">
        <ele>510.8</ele>
        <time>2023-06-28T08:44:42Z</time>
      </trkpt>
      <trkpt lat="43.2638" lon="6.24875">
        <ele>509.7</ele>
        <time>2023-06-28T08:44:52Z</time>
      </trkpt>
      <trkpt lat="43.26386" lon="6.24864">
        <ele>508.6</ele>
        <time>2023-06-28T08:45:02Z</time>
      </trkpt>
      <trkpt lat="43.26396" lon="6.24857">
        <ele>507.5</ele>
        <time>2023-06-28T08:45:12Z</time>
      </trkpt>
      <trkpt lat="43.26407" lon="6.24844">
        <ele>506.9</ele>
        <time>2023-06-28T08:45:22Z</time>
      </trkpt>
      <trkpt lat="43.26413" lon="6.24823">
        <ele>505.9</ele>
        <time>2023-06-28T08:45:33Z</time>
      </trkpt>
      <trkpt lat="43.26416" lon="6.24805">
        <ele>504.9</ele>
        <time>2023-06-28T08:45:43Z</time>
      </trkpt>
      <trkpt lat="43.26417" lon="6.24786">
        <ele>504.2</ele>
        <time>2023-06-28T08:45:53Z</time>
      </trkpt>
      <trkpt lat="43.2643" lon="6.24779">
        <ele>504</ele>
        <time>2023-06-28T08:46:03Z</time>
      </trkpt>
      <trkpt lat="43.26448" lon="6.2477">
        <ele>504</ele>
        <time>2023-06-28T08:46:13Z</time>
      </trkpt>
      <trkpt lat="43.26455" lon="6.24765">
        <ele>504.1</ele>
        <time>2023-06-28T08:46:23Z</time>
      </trkpt>
      <trkpt lat="43.26456" lon="6.24764">
        <ele>504.5</ele>
        <time>2023-06-28T08:46:33Z</time>
      </trkpt>
      <trkpt lat="43.26457" lon="6.24763">
        <ele>504.2</ele>
        <time>2023-06-28T08:46:43Z</time>
      </trkpt>
      <trkpt lat="43.26458" lon="6.24765">
        <ele>504.3</ele>
        <time>2023-06-28T08:46:53Z</time>
      </trkpt>
      <trkpt lat="43.2646" lon="6.24763">
        <ele>504.6</ele>
        <time>2023-06-28T08:47:03Z</time>
      </trkpt>
      <trkpt lat="43.26462" lon="6.24759">
        <ele>504.7</ele>
        <time>2023-06-28T08:47:13Z</time>
      </trkpt>
      <trkpt lat="43.26465" lon="6.24757">
        <ele>504.3</ele>
        <time>2023-06-28T08:47:23Z</time>
      </trkpt>
      <trkpt lat="43.26462" lon="6.24755">
        <ele>504</ele>
        <time>2023-06-28T08:47:33Z</time>
      </trkpt>
      <trkpt lat="43.26462" lon="6.24754">
        <ele>505.1</ele>
        <time>2023-06-28T08:47:43Z</time>
      </trkpt>
      <trkpt lat="43.26463" lon="6.24749">
        <ele>504</ele>
        <time>2023-06-28T08:47:53Z</time>
      </trkpt>
      <trkpt lat="43.2646" lon="6.2475">
        <ele>504.4</ele>
        <time>2023-06-28T08:48:03Z</time>
      </trkpt>
      <trkpt lat="43.2646" lon="6.24753">
        <ele>504.7</ele>
        <time>2023-06-28T08:48:13Z</time>
      </trkpt>
      <trkpt lat="43.26462" lon="6.24747">
        <ele>504.5</ele>
        <time>2023-06-28T08:48:23Z</time>
      </trkpt>
      <trkpt lat="43.26463" lon="6.24733">
        <ele>504.2</ele>
        <time>2023-06-28T08:48:33Z</time>
      </trkpt>
      <trkpt lat="43.26464" lon="6.2472">
        <ele>503.1</ele>
        <time>2023-06-28T08:48:43Z</time>
      </trkpt>
      <trkpt lat="43.26465" lon="6.24706">
        <ele>503.9</ele>
        <time>2023-06-28T08:48:53Z</time>
      </trkpt>
      <trkpt lat="43.26461" lon="6.24693">
        <ele>503.8</ele>
        <time>2023-06-28T08:49:03Z</time>
      </trkpt>
      <trkpt lat="43.26459" lon="6.24677">
        <ele>504.9</ele>
        <time>2023-06-28T08:49:13Z</time>
      </trkpt>
      <trkpt lat="43.2646" lon="6.24661">
        <ele>504.6</ele>
        <time>2023-06-28T08:49:23Z</time>
      </trkpt>
      <trkpt lat="43.26454" lon="6.24643">
        <ele>504.3</ele>
        <time>2023-06-28T08:49:33Z</time>
      </trkpt>
      <trkpt lat="43.26452" lon="6.24625">
        <ele>503.1</ele>
        <time>2023-06-28T08:49:43Z</time>
      </trkpt>
      <trkpt lat="43.26449" lon="6.24607">
        <ele>501.9</ele>
        <time>2023-06-28T08:49:53Z</time>
      </trkpt>
      <trkpt lat="43.26442" lon="6.24592">
        <ele>500.8</ele>
        <time>2023-06-28T08:50:03Z</time>
      </trkpt>
      <trkpt lat="43.26437" lon="6.24577">
        <ele>501</ele>
        <time>2023-06-28T08:50:13Z</time>
      </trkpt>
      <trkpt lat="43.26436" lon="6.24561">
        <ele>500.1</ele>
        <time>2023-06-28T08:50:23Z</time>
      </trkpt>
      <trkpt lat="43.26436" lon="6.24541">
        <ele>499.7</ele>
        <time>2023-06-28T08:50:33Z</time>
      </trkpt>
      <trkpt lat="43.26434" lon="6.24525">
        <ele>498.8</ele>
        <time>2023-06-28T08:50:43Z</time>
      </trkpt>
      <trkpt lat="43.26436" lon="6.24509">
        <ele>497.9</ele>
        <time>2023-06-28T08:50:53Z</time>
      </trkpt>
      <trkpt lat="43.26437" lon="6.24494">
        <ele>496.1</ele>
        <time>2023-06-28T08:51:03Z</time>
      </trkpt>
      <trkpt lat="43.26441" lon="6.24484">
        <ele>494.3</ele>
        <time>2023-06-28T08:51:13Z</time>
      </trkpt>
      <trkpt lat="43.26444" lon="6.24473">
        <ele>492.7</ele>
        <time>2023-06-28T08:51:23Z</time>
      </trkpt>
      <trkpt lat="43.26446" lon="6.24458">
        <ele>490.6</ele>
        <time>2023-06-28T08:51:33Z</time>
      </trkpt>
      <trkpt lat="43.26448" lon="6.24442">
        <ele>488.8</ele>
        <time>2023-06-28T08:51:43Z</time>
      </trkpt>
      <trkpt lat="43.26451" lon="6.24423">
        <ele>487.8</ele>
        <time>2023-06-28T08:51:53Z</time>
      </trkpt>
      <trkpt lat="43.26456" lon="6.24412">
        <ele>485.9</ele>
        <time>2023-06-28T08:52:03Z</time>
      </trkpt>
      <trkpt lat="43.26461" lon="6.24398">
        <ele>485.8</ele>
        <time>2023-06-28T08:52:13Z</time>
      </trkpt>
      <trkpt lat="43.26465" lon="6.2438">
        <ele>484.6</ele>
        <time>2023-06-28T08:52:23Z</time>
      </trkpt>
      <trkpt lat="43.26471" lon="6.24363">
        <ele>484.9</ele>
        <time>2023-06-28T08:52:33Z</time>
      </trkpt>
      <trkpt lat="43.26473" lon="6.24347">
        <ele>484.7</ele>
        <time>2023-06-28T08:52:43Z</time>
      </trkpt>
      <trkpt lat="43.2648" lon="6.24337">
        <ele>484.8</ele>
        <time>2023-06-28T08:52:53Z</time>
      </trkpt>
      <trkpt lat="43.26486" lon="6.24325">
        <ele>484.9</ele>
        <time>2023-06-28T08:53:03Z</time>
      </trkpt>
      <trkpt lat="43.26492" lon="6.24311">
        <ele>484.8</ele>
        <time>2023-06-28T08:53:13Z</time>
      </trkpt>
      <trkpt lat="43.26497" lon="6.24296">
        <ele>484.4</ele>
        <time>2023-06-28T08:53:23Z</time>
      </trkpt>
      <trkpt lat="43.26499" lon="6.24277">
        <ele>484.6</ele>
        <time>2023-06-28T08:53:33Z</time>
      </trkpt>
      <trkpt lat="43.26505" lon="6.2426">
        <ele>484.4</ele>
        <time>2023-06-28T08:53:43Z</time>
      </trkpt>
      <trkpt lat="43.26505" lon="6.24244">
        <ele>483.3</ele>
        <time>2023-06-28T08:53:53Z</time>
      </trkpt>
      <trkpt lat="43.26504" lon="6.24228">
        <ele>481.8</ele>
        <time>2023-06-28T08:54:03Z</time>
      </trkpt>
      <trkpt lat="43.26499" lon="6.24215">
        <ele>479.8</ele>
        <time>2023-06-28T08:54:13Z</time>
      </trkpt>
      <trkpt lat="43.26495" lon="6.24202">
        <ele>478.1</ele>
        <time>2023-06-28T08:54:23Z</time>
      </trkpt>
      <trkpt lat="43.26494" lon="6.24189">
        <ele>476.2</ele>
        <time>2023-06-28T08:54:33Z</time>
      </trkpt>
      <trkpt lat="43.26497" lon="6.24176">
        <ele>473.7</ele>
        <time>2023-06-28T08:54:43Z</time>
      </trkpt>
      <trkpt lat="43.26498" lon="6.24162">
        <ele>470.7</ele>
        <time>2023-06-28T08:54:53Z</time>
      </trkpt>
      <trkpt lat="43.26501" lon="6.24152">
        <ele>468.5</ele>
        <time>2023-06-28T08:55:03Z</time>
      </trkpt>
      <trkpt lat="43.26496" lon="6.24142">
        <ele>465.9</ele>
        <time>2023-06-28T08:55:13Z</time>
      </trkpt>
      <trkpt lat="43.26494" lon="6.24129">
        <ele>463.7</ele>
        <time>2023-06-28T08:55:23Z</time>
      </trkpt>
      <trkpt lat="43.26497" lon="6.24119">
        <ele>461.2</ele>
        <time>2023-06-28T08:55:33Z</time>
      </trkpt>
      <trkpt lat="43.26497" lon="6.24105">
        <ele>459.4</ele>
        <time>2023-06-28T08:55:43Z</time>
      </trkpt>
      <trkpt lat="43.26495" lon="6.24089">
        <ele>457.4</ele>
        <time>2023-06-28T08:55:53Z</time>
      </trkpt>
      <trkpt lat="43.26495" lon="6.24075">
        <ele>455.6</ele>
        <time>2023-06-28T08:56:03Z</time>
      </trkpt>
      <trkpt lat="43.26493" lon="6.24062">
        <ele>453.7</ele>
        <time>2023-06-28T08:56:13Z</time>
      </trkpt>
      <trkpt lat="43.26495" lon="6.24051">
        <ele>451.8</ele>
        <time>2023-06-28T08:56:23Z</time>
      </trkpt>
      <trkpt lat="43.26495" lon="6.24037">
        <ele>449.1</ele>
        <time>2023-06-28T08:56:33Z</time>
      </trkpt>
      <trkpt lat="43.2649" lon="6.24022">
        <ele>446.9</ele>
        <time>2023-06-28T08:56:43Z</time>
      </trkpt>
      <trkpt lat="43.26489" lon="6.24009">
        <ele>445.4</ele>
        <time>2023-06-28T08:56:53Z</time>
      </trkpt>
      <trkpt lat="43.26493" lon="6.23996">
        <ele>443.4</ele>
        <time>2023-06-28T08:57:03Z</time>
      </trkpt>
      <trkpt lat="43.26495" lon="6.23979">
        <ele>440.8</ele>
        <time>2023-06-28T08:57:13Z</time>
      </trkpt>
      <trkpt lat="43.26498" lon="6.23967">
        <ele>439.4</ele>
        <time>2023-06-28T08:57:23Z</time>
      </trkpt>
      <trkpt lat="43.265" lon="6.2395">
        <ele>438.1</ele>
        <time>2023-06-28T08:57:33Z</time>
      </trkpt>
      <trkpt lat="43.26505" lon="6.23937">
        <ele>436.6</ele>
        <time>2023-06-28T08:57:43Z</time>
      </trkpt>
      <trkpt lat="43.26506" lon="6.23918">
        <ele>434.6</ele>
        <time>2023-06-28T08:57:53Z</time>
      </trkpt>
      <trkpt lat="43.26509" lon="6.23903">
        <ele>434.2</ele>
        <time>2023-06-28T08:58:03Z</time>
      </trkpt>
      <trkpt lat="43.26501" lon="6.23884">
        <ele>434.3</ele>
        <time>2023-06-28T08:58:13Z</time>
      </trkpt>
      <trkpt lat="43.26499" lon="6.23863">
        <ele>434</ele>
        <time>2023-06-28T08:58:23Z</time>
      </trkpt>
      <trkpt lat="43.26496" lon="6.23846">
        <ele>433.4</ele>
        <time>2023-06-28T08:58:33Z</time>
      </trkpt>
      <trkpt lat="43.26492" lon="6.23829">
        <ele>433.6</ele>
        <time>2023-06-28T08:58:43Z</time>
      </trkpt>
      <trkpt lat="43.26493" lon="6.23809">
        <ele>433.6</ele>
        <time>2023-06-28T08:58:53Z</time>
      </trkpt>
      <trkpt lat="43.26488" lon="6.23784">
        <ele>433.9</ele>
        <time>2023-06-28T08:59:03Z</time>
      </trkpt>
      <trkpt lat="43.26485" lon="6.2377">
        <ele>433.4</ele>
        <time>2023-06-28T08:59:13Z</time>
      </trkpt>
      <trkpt lat="43.26486" lon="6.23756">
        <ele>434</ele>
        <time>2023-06-28T08:59:23Z</time>
      </trkpt>
      <trkpt lat="43.26488" lon="6.23739">
        <ele>433.1</ele>
        <time>2023-06-28T08:59:33Z</time>
      </trkpt>
      <trkpt lat="43.26484" lon="6.23717">
        <ele>433.4</ele>
        <time>2023-06-28T08:59:43Z</time>
      </trkpt>
      <trkpt lat="43.26486" lon="6.23707">
        <ele>432.3</ele>
        <time>2023-06-28T08:59:53Z</time>
      </trkpt>
      <trkpt lat="43.26492" lon="6.23709">
        <ele>430.7</ele>
        <time>2023-06-28T09:00:03Z</time>
      </trkpt>
      <trkpt lat="43.26493" lon="6.23709">
        <ele>429.1</ele>
        <time>2023-06-28T09:00:13Z</time>
      </trkpt>
      <trkpt lat="43.26494" lon="6.23708">
        <ele>429.4</ele>
        <time>2023-06-28T09:00:23Z</time>
      </trkpt>
      <trkpt lat="43.26498" lon="6.23712">
        <ele>429.8</ele>
        <time>2023-06-28T09:00:33Z</time>
      </trkpt>
      <trkpt lat="43.26504" lon="6.23724">
        <ele>428.8</ele>
        <time>2023-06-28T09:00:43Z</time>
      </trkpt>
      <trkpt lat="43.26508" lon="6.23735">
        <ele>427.6</ele>
        <time>2023-06-28T09:00:53Z</time>
      </trkpt>
      <trkpt lat="43.26506" lon="6.23748">
        <ele>427</ele>
        <time>2023-06-28T09:01:03Z</time>
      </trkpt>
      <trkpt lat="43.26507" lon="6.23759">
        <ele>425.8</ele>
        <time>2023-06-28T09:01:13Z</time>
      </trkpt>
      <trkpt lat="43.26507" lon="6.23774">
        <ele>425.4</ele>
        <time>2023-06-28T09:01:23Z</time>
      </trkpt>
      <trkpt lat="43.26506" lon="6.23789">
        <ele>424.2</ele>
        <time>2023-06-28T09:01:33Z</time>
      </trkpt>
      <trkpt lat="43.26507" lon="6.23806">
        <ele>422.9</ele>
        <time>2023-06-28T09:01:43Z</time>
      </trkpt>
      <trkpt lat="43.26514" lon="6.23829">
        <ele>422.8</ele>
        <time>2023-06-28T09:01:53Z</time>
      </trkpt>
      <trkpt lat="43.26515" lon="6.23844">
        <ele>421.6</ele>
        <time>2023-06-28T09:02:03Z</time>
      </trkpt>
      <trkpt lat="43.26519" lon="6.23863">
        <ele>420.7</ele>
        <time>2023-06-28T09:02:13Z</time>
      </trkpt>
      <trkpt lat="43.26521" lon="6.23884">
        <ele>420.5</ele>
        <time>2023-06-28T09:02:23Z</time>
      </trkpt>
      <trkpt lat="43.26529" lon="6.23902">
        <ele>419.7</ele>
        <time>2023-06-28T09:02:33Z</time>
      </trkpt>
      <trkpt lat="43.26534" lon="6.2392">
        <ele>418.8</ele>
        <time>2023-06-28T09:02:43Z</time>
      </trkpt>
      <trkpt lat="43.26535" lon="6.23929">
        <ele>417.8</ele>
        <time>2023-06-28T09:02:53Z</time>
      </trkpt>
      <trkpt lat="43.26537" lon="6.23939">
        <ele>417.2</ele>
        <time>2023-06-28T09:03:03Z</time>
      </trkpt>
      <trkpt lat="43.26548" lon="6.23954">
        <ele>416.7</ele>
        <time>2023-06-28T09:03:13Z</time>
      </trkpt>
      <trkpt lat="43.26555" lon="6.23975">
        <ele>415.9</ele>
        <time>2023-06-28T09:03:23Z</time>
      </trkpt>
      <trkpt lat="43.2656" lon="6.23991">
        <ele>415.1</ele>
        <time>2023-06-28T09:03:33Z</time>
      </trkpt>
      <trkpt lat="43.26567" lon="6.24008">
        <ele>414.3</ele>
        <time>2023-06-28T09:03:43Z</time>
      </trkpt>
      <trkpt lat="43.26569" lon="6.24018">
        <ele>413.3</ele>
        <time>2023-06-28T09:03:53Z</time>
      </trkpt>
      <trkpt lat="43.26573" lon="6.24031">
        <ele>412</ele>
        <time>2023-06-28T09:04:03Z</time>
      </trkpt>
      <trkpt lat="43.26585" lon="6.24033">
        <ele>411</ele>
        <time>2023-06-28T09:04:13Z</time>
      </trkpt>
      <trkpt lat="43.26586" lon="6.24035">
        <ele>411.3</ele>
        <time>2023-06-28T09:04:23Z</time>
      </trkpt>
      <trkpt lat="43.26589" lon="6.24051">
        <ele>410.8</ele>
        <time>2023-06-28T09:04:33Z</time>
      </trkpt>
      <trkpt lat="43.26591" lon="6.24068">
        <ele>409.7</ele>
        <time>2023-06-28T09:04:47Z</time>
      </trkpt>
      <trkpt lat="43.26598" lon="6.24082">
        <ele>408.5</ele>
        <time>2023-06-28T09:04:57Z</time>
      </trkpt>
      <trkpt lat="43.26606" lon="6.24096">
        <ele>408.4</ele>
        <time>2023-06-28T09:05:07Z</time>
      </trkpt>
      <trkpt lat="43.26612" lon="6.24107">
        <ele>406.8</ele>
        <time>2023-06-28T09:05:17Z</time>
      </trkpt>
      <trkpt lat="43.26625" lon="6.24117">
        <ele>406.7</ele>
        <time>2023-06-28T09:05:27Z</time>
      </trkpt>
      <trkpt lat="43.26635" lon="6.24126">
        <ele>405.3</ele>
        <time>2023-06-28T09:05:37Z</time>
      </trkpt>
      <trkpt lat="43.26646" lon="6.24133">
        <ele>403.5</ele>
        <time>2023-06-28T09:05:47Z</time>
      </trkpt>
      <trkpt lat="43.26656" lon="6.24137">
        <ele>402.7</ele>
        <time>2023-06-28T09:05:57Z</time>
      </trkpt>
      <trkpt lat="43.26666" lon="6.24151">
        <ele>402.3</ele>
        <time>2023-06-28T09:06:07Z</time>
      </trkpt>
      <trkpt lat="43.2668" lon="6.24165">
        <ele>401</ele>
        <time>2023-06-28T09:06:17Z</time>
      </trkpt>
      <trkpt lat="43.26695" lon="6.24162">
        <ele>400.4</ele>
        <time>2023-06-28T09:06:27Z</time>
      </trkpt>
      <trkpt lat="43.2671" lon="6.24156">
        <ele>399.6</ele>
        <time>2023-06-28T09:06:37Z</time>
      </trkpt>
      <trkpt lat="43.26724" lon="6.24155">
        <ele>398.6</ele>
        <time>2023-06-28T09:06:47Z</time>
      </trkpt>
      <trkpt lat="43.26738" lon="6.24159">
        <ele>397.3</ele>
        <time>2023-06-28T09:06:57Z</time>
      </trkpt>
      <trkpt lat="43.26749" lon="6.24166">
        <ele>396.9</ele>
        <time>2023-06-28T09:07:07Z</time>
      </trkpt>
      <trkpt lat="43.26761" lon="6.24169">
        <ele>396.4</ele>
        <time>2023-06-28T09:07:17Z</time>
      </trkpt>
      <trkpt lat="43.26778" lon="6.2417">
        <ele>394.5</ele>
        <time>2023-06-28T09:07:27Z</time>
      </trkpt>
      <trkpt lat="43.26789" lon="6.24163">
        <ele>391.3</ele>
        <time>2023-06-28T09:07:37Z</time>
      </trkpt>
      <trkpt lat="43.26799" lon="6.24173">
        <ele>392.8</ele>
        <time>2023-06-28T09:07:47Z</time>
      </trkpt>
      <trkpt lat="43.2681" lon="6.24178">
        <ele>392</ele>
        <time>2023-06-28T09:07:57Z</time>
      </trkpt>
      <trkpt lat="43.26826" lon="6.24171">
        <ele>391.8</ele>
        <time>2023-06-28T09:08:07Z</time>
      </trkpt>
      <trkpt lat="43.26834" lon="6.24175">
        <ele>390.5</ele>
        <time>2023-06-28T09:08:17Z</time>
      </trkpt>
      <trkpt lat="43.26848" lon="6.24183">
        <ele>388.9</ele>
        <time>2023-06-28T09:08:27Z</time>
      </trkpt>
      <trkpt lat="43.26862" lon="6.24188">
        <ele>387.3</ele>
        <time>2023-06-28T09:08:37Z</time>
      </trkpt>
      <trkpt lat="43.26874" lon="6.2419">
        <ele>387.4</ele>
        <time>2023-06-28T09:08:47Z</time>
      </trkpt>
      <trkpt lat="43.26886" lon="6.24191">
        <ele>385.5</ele>
        <time>2023-06-28T09:08:57Z</time>
      </trkpt>
      <trkpt lat="43.26901" lon="6.24189">
        <ele>385.6</ele>
        <time>2023-06-28T09:09:07Z</time>
      </trkpt>
      <trkpt lat="43.26918" lon="6.24185">
        <ele>384.2</ele>
        <time>2023-06-28T09:09:17Z</time>
      </trkpt>
      <trkpt lat="43.26932" lon="6.24188">
        <ele>384.6</ele>
        <time>2023-06-28T09:09:28Z</time>
      </trkpt>
      <trkpt lat="43.26945" lon="6.24174">
        <ele>383.2</ele>
        <time>2023-06-28T09:09:38Z</time>
      </trkpt>
      <trkpt lat="43.26953" lon="6.24165">
        <ele>382.3</ele>
        <time>2023-06-28T09:09:48Z</time>
      </trkpt>
      <trkpt lat="43.26968" lon="6.24167">
        <ele>380.7</ele>
        <time>2023-06-28T09:09:58Z</time>
      </trkpt>
      <trkpt lat="43.26975" lon="6.2415">
        <ele>380.4</ele>
        <time>2023-06-28T09:10:08Z</time>
      </trkpt>
      <trkpt lat="43.26983" lon="6.24125">
        <ele>379.8</ele>
        <time>2023-06-28T09:10:18Z</time>
      </trkpt>
      <trkpt lat="43.26991" lon="6.24114">
        <ele>378.7</ele>
        <time>2023-06-28T09:10:28Z</time>
      </trkpt>
      <trkpt lat="43.27002" lon="6.24097">
        <ele>378</ele>
        <time>2023-06-28T09:10:38Z</time>
      </trkpt>
      <trkpt lat="43.2701" lon="6.24085">
        <ele>377.2</ele>
        <time>2023-06-28T09:10:48Z</time>
      </trkpt>
      <trkpt lat="43.27016" lon="6.24074">
        <ele>376.9</ele>
        <time>2023-06-28T09:10:58Z</time>
      </trkpt>
      <trkpt lat="43.27026" lon="6.24077">
        <ele>375.9</ele>
        <time>2023-06-28T09:11:08Z</time>
      </trkpt>
      <trkpt lat="43.27034" lon="6.24082">
        <ele>374.7</ele>
        <time>2023-06-28T09:11:18Z</time>
      </trkpt>
      <trkpt lat="43.27042" lon="6.2409">
        <ele>374.5</ele>
        <time>2023-06-28T09:11:28Z</time>
      </trkpt>
      <trkpt lat="43.27045" lon="6.24105">
        <ele>373.3</ele>
        <time>2023-06-28T09:11:38Z</time>
      </trkpt>
      <trkpt lat="43.27048" lon="6.24117">
        <ele>372.3</ele>
        <time>2023-06-28T09:11:48Z</time>
      </trkpt>
      <trkpt lat="43.27052" lon="6.24139">
        <ele>371.5</ele>
        <time>2023-06-28T09:11:58Z</time>
      </trkpt>
      <trkpt lat="43.27055" lon="6.24145">
        <ele>370</ele>
        <time>2023-06-28T09:12:08Z</time>
      </trkpt>
      <trkpt lat="43.27059" lon="6.24155">
        <ele>370.2</ele>
        <time>2023-06-28T09:12:18Z</time>
      </trkpt>
      <trkpt lat="43.27065" lon="6.2418">
        <ele>369.3</ele>
        <time>2023-06-28T09:12:28Z</time>
      </trkpt>
      <trkpt lat="43.27069" lon="6.24189">
        <ele>368.8</ele>
        <time>2023-06-28T09:12:38Z</time>
      </trkpt>
      <trkpt lat="43.27077" lon="6.24208">
        <ele>368</ele>
        <time>2023-06-28T09:12:48Z</time>
      </trkpt>
      <trkpt lat="43.27083" lon="6.24229">
        <ele>365.3</ele>
        <time>2023-06-28T09:12:58Z</time>
      </trkpt>
      <trkpt lat="43.27081" lon="6.24249">
        <ele>366.2</ele>
        <time>2023-06-28T09:13:08Z</time>
      </trkpt>
      <trkpt lat="43.27085" lon="6.2427">
        <ele>366.2</ele>
        <time>2023-06-28T09:13:18Z</time>
      </trkpt>
      <trkpt lat="43.27087" lon="6.24292">
        <ele>364.9</ele>
        <time>2023-06-28T09:13:28Z</time>
      </trkpt>
      <trkpt lat="43.27089" lon="6.24303">
        <ele>363.7</ele>
        <time>2023-06-28T09:13:38Z</time>
      </trkpt>
      <trkpt lat="43.27093" lon="6.24321">
        <ele>362.9</ele>
        <time>2023-06-28T09:13:48Z</time>
      </trkpt>
      <trkpt lat="43.271" lon="6.24341">
        <ele>362.7</ele>
        <time>2023-06-28T09:13:58Z</time>
      </trkpt>
      <trkpt lat="43.27109" lon="6.24357">
        <ele>362.1</ele>
        <time>2023-06-28T09:14:08Z</time>
      </trkpt>
      <trkpt lat="43.27123" lon="6.24373">
        <ele>361.7</ele>
        <time>2023-06-28T09:14:18Z</time>
      </trkpt>
      <trkpt lat="43.27131" lon="6.24387">
        <ele>361.2</ele>
        <time>2023-06-28T09:14:28Z</time>
      </trkpt>
      <trkpt lat="43.27136" lon="6.24402">
        <ele>361.6</ele>
        <time>2023-06-28T09:14:38Z</time>
      </trkpt>
      <trkpt lat="43.27142" lon="6.2441">
        <ele>360.9</ele>
        <time>2023-06-28T09:14:48Z</time>
      </trkpt>
      <trkpt lat="43.2715" lon="6.24418">
        <ele>361.1</ele>
        <time>2023-06-28T09:14:58Z</time>
      </trkpt>
      <trkpt lat="43.27159" lon="6.24426">
        <ele>361.1</ele>
        <time>2023-06-28T09:15:08Z</time>
      </trkpt>
      <trkpt lat="43.2717" lon="6.24433">
        <ele>362</ele>
        <time>2023-06-28T09:15:18Z</time>
      </trkpt>
      <trkpt lat="43.27179" lon="6.24439">
        <ele>363.4</ele>
        <time>2023-06-28T09:15:28Z</time>
      </trkpt>
      <trkpt lat="43.27187" lon="6.24445">
        <ele>365.1</ele>
        <time>2023-06-28T09:15:38Z</time>
      </trkpt>
      <trkpt lat="43.272" lon="6.2445">
        <ele>366.6</ele>
        <time>2023-06-28T09:15:48Z</time>
      </trkpt>
      <trkpt lat="43.27209" lon="6.2446">
        <ele>368.1</ele>
        <time>2023-06-28T09:15:58Z</time>
      </trkpt>
      <trkpt lat="43.27219" lon="6.24469">
        <ele>369</ele>
        <time>2023-06-28T09:16:08Z</time>
      </trkpt>
      <trkpt lat="43.27227" lon="6.24481">
        <ele>371.1</ele>
        <time>2023-06-28T09:16:18Z</time>
      </trkpt>
      <trkpt lat="43.27236" lon="6.24492">
        <ele>372.1</ele>
        <time>2023-06-28T09:16:28Z</time>
      </trkpt>
      <trkpt lat="43.27251" lon="6.24496">
        <ele>372.1</ele>
        <time>2023-06-28T09:16:38Z</time>
      </trkpt>
      <trkpt lat="43.27267" lon="6.2449">
        <ele>370.1</ele>
        <time>2023-06-28T09:16:48Z</time>
      </trkpt>
      <trkpt lat="43.27278" lon="6.24488">
        <ele>369.6</ele>
        <time>2023-06-28T09:16:58Z</time>
      </trkpt>
      <trkpt lat="43.27288" lon="6.24487">
        <ele>368.4</ele>
        <time>2023-06-28T09:17:08Z</time>
      </trkpt>
      <trkpt lat="43.27303" lon="6.24489">
        <ele>366.5</ele>
        <time>2023-06-28T09:17:18Z</time>
      </trkpt>
      <trkpt lat="43.27315" lon="6.24492">
        <ele>366.8</ele>
        <time>2023-06-28T09:17:28Z</time>
      </trkpt>
      <trkpt lat="43.27325" lon="6.24497">
        <ele>365.4</ele>
        <time>2023-06-28T09:17:38Z</time>
      </trkpt>
      <trkpt lat="43.27337" lon="6.24496">
        <ele>365.7</ele>
        <time>2023-06-28T09:17:48Z</time>
      </trkpt>
      <trkpt lat="43.27352" lon="6.24493">
        <ele>366.3</ele>
        <time>2023-06-28T09:17:58Z</time>
      </trkpt>
      <trkpt lat="43.27365" lon="6.24485">
        <ele>366.3</ele>
        <time>2023-06-28T09:18:08Z</time>
      </trkpt>
      <trkpt lat="43.27378" lon="6.24473">
        <ele>365.5</ele>
        <time>2023-06-28T09:18:18Z</time>
      </trkpt>
      <trkpt lat="43.27391" lon="6.24476">
        <ele>365.3</ele>
        <time>2023-06-28T09:18:28Z</time>
      </trkpt>
      <trkpt lat="43.27403" lon="6.24481">
        <ele>363.1</ele>
        <time>2023-06-28T09:18:38Z</time>
      </trkpt>
      <trkpt lat="43.27412" lon="6.24469">
        <ele>362.2</ele>
        <time>2023-06-28T09:18:48Z</time>
      </trkpt>
      <trkpt lat="43.27428" lon="6.24457">
        <ele>361.1</ele>
        <time>2023-06-28T09:18:59Z</time>
      </trkpt>
      <trkpt lat="43.27437" lon="6.24453">
        <ele>359.9</ele>
        <time>2023-06-28T09:19:09Z</time>
      </trkpt>
      <trkpt lat="43.27449" lon="6.24441">
        <ele>358.5</ele>
        <time>2023-06-28T09:19:19Z</time>
      </trkpt>
      <trkpt lat="43.27462" lon="6.24429">
        <ele>357.4</ele>
        <time>2023-06-28T09:19:29Z</time>
      </trkpt>
      <trkpt lat="43.27474" lon="6.24426">
        <ele>355.5</ele>
        <time>2023-06-28T09:19:39Z</time>
      </trkpt>
      <trkpt lat="43.27486" lon="6.24421">
        <ele>353.7</ele>
        <time>2023-06-28T09:19:49Z</time>
      </trkpt>
      <trkpt lat="43.27497" lon="6.24415">
        <ele>351.6</ele>
        <time>2023-06-28T09:19:59Z</time>
      </trkpt>
      <trkpt lat="43.27509" lon="6.24394">
        <ele>349.5</ele>
        <time>2023-06-28T09:20:09Z</time>
      </trkpt>
      <trkpt lat="43.2752" lon="6.24373">
        <ele>346.8</ele>
        <time>2023-06-28T09:20:19Z</time>
      </trkpt>
      <trkpt lat="43.27531" lon="6.2435">
        <ele>343.6</ele>
        <time>2023-06-28T09:20:29Z</time>
      </trkpt>
      <trkpt lat="43.27544" lon="6.24332">
        <ele>340.1</ele>
        <time>2023-06-28T09:20:39Z</time>
      </trkpt>
      <trkpt lat="43.27555" lon="6.24319">
        <ele>337.6</ele>
        <time>2023-06-28T09:20:49Z</time>
      </trkpt>
      <trkpt lat="43.27567" lon="6.24303">
        <ele>335.6</ele>
        <time>2023-06-28T09:20:59Z</time>
      </trkpt>
      <trkpt lat="43.27579" lon="6.24287">
        <ele>332.9</ele>
        <time>2023-06-28T09:21:09Z</time>
      </trkpt>
      <trkpt lat="43.27589" lon="6.24269">
        <ele>330.1</ele>
        <time>2023-06-28T09:21:19Z</time>
      </trkpt>
      <trkpt lat="43.27599" lon="6.2425">
        <ele>327.5</ele>
        <time>2023-06-28T09:21:29Z</time>
      </trkpt>
      <trkpt lat="43.27612" lon="6.24233">
        <ele>324.9</ele>
        <time>2023-06-28T09:21:39Z</time>
      </trkpt>
      <trkpt lat="43.27622" lon="6.2423">
        <ele>322.7</ele>
        <time>2023-06-28T09:21:49Z</time>
      </trkpt>
      <trkpt lat="43.2762" lon="6.24231">
        <ele>322.6</ele>
        <time>2023-06-28T09:21:59Z</time>
      </trkpt>
      <trkpt lat="43.2762" lon="6.24232">
        <ele>322.5</ele>
        <time>2023-06-28T09:22:09Z</time>
      </trkpt>
      <trkpt lat="43.2762" lon="6.24233">
        <ele>322.4</ele>
        <time>2023-06-28T09:22:19Z</time>
      </trkpt>
      <trkpt lat="43.27621" lon="6.2423">
        <ele>322.1</ele>
        <time>2023-06-28T09:22:29Z</time>
      </trkpt>
      <trkpt lat="43.27621" lon="6.24226">
        <ele>321.9</ele>
        <time>2023-06-28T09:22:39Z</time>
      </trkpt>
      <trkpt lat="43.27621" lon="6.24225">
        <ele>321.8</ele>
        <time>2023-06-28T09:22:49Z</time>
      </trkpt>
      <trkpt lat="43.27623" lon="6.24223">
        <ele>321.7</ele>
        <time>2023-06-28T09:22:59Z</time>
      </trkpt>
      <trkpt lat="43.27625" lon="6.24219">
        <ele>321.4</ele>
        <time>2023-06-28T09:23:09Z</time>
      </trkpt>
      <trkpt lat="43.27633" lon="6.2422">
        <ele>319.6</ele>
        <time>2023-06-28T09:23:19Z</time>
      </trkpt>
      <trkpt lat="43.2764" lon="6.24222">
        <ele>318.1</ele>
        <time>2023-06-28T09:23:29Z</time>
      </trkpt>
      <trkpt lat="43.27647" lon="6.24218">
        <ele>316.2</ele>
        <time>2023-06-28T09:23:39Z</time>
      </trkpt>
      <trkpt lat="43.27654" lon="6.24217">
        <ele>313.9</ele>
        <time>2023-06-28T09:23:49Z</time>
      </trkpt>
      <trkpt lat="43.27662" lon="6.24215">
        <ele>312.3</ele>
        <time>2023-06-28T09:23:59Z</time>
      </trkpt>
      <trkpt lat="43.27671" lon="6.24214">
        <ele>309.8</ele>
        <time>2023-06-28T09:24:09Z</time>
      </trkpt>
      <trkpt lat="43.2768" lon="6.24211">
        <ele>308.2</ele>
        <time>2023-06-28T09:24:19Z</time>
      </trkpt>
      <trkpt lat="43.27691" lon="6.24214">
        <ele>306.1</ele>
        <time>2023-06-28T09:24:29Z</time>
      </trkpt>
      <trkpt lat="43.277" lon="6.24217">
        <ele>303.4</ele>
        <time>2023-06-28T09:24:39Z</time>
      </trkpt>
      <trkpt lat="43.27711" lon="6.24212">
        <ele>300.4</ele>
        <time>2023-06-28T09:24:49Z</time>
      </trkpt>
      <trkpt lat="43.27723" lon="6.24202">
        <ele>297.5</ele>
        <time>2023-06-28T09:24:59Z</time>
      </trkpt>
      <trkpt lat="43.27737" lon="6.24195">
        <ele>293.4</ele>
        <time>2023-06-28T09:25:09Z</time>
      </trkpt>
      <trkpt lat="43.27749" lon="6.24196">
        <ele>291.1</ele>
        <time>2023-06-28T09:25:19Z</time>
      </trkpt>
      <trkpt lat="43.27761" lon="6.24193">
        <ele>289.3</ele>
        <time>2023-06-28T09:25:29Z</time>
      </trkpt>
      <trkpt lat="43.27773" lon="6.24191">
        <ele>287.4</ele>
        <time>2023-06-28T09:25:39Z</time>
      </trkpt>
      <trkpt lat="43.27784" lon="6.24184">
        <ele>285.4</ele>
        <time>2023-06-28T09:25:49Z</time>
      </trkpt>
      <trkpt lat="43.27788" lon="6.24183">
        <ele>285.1</ele>
        <time>2023-06-28T09:25:59Z</time>
      </trkpt>
      <trkpt lat="43.27796" lon="6.24179">
        <ele>283.5</ele>
        <time>2023-06-28T09:26:09Z</time>
      </trkpt>
      <trkpt lat="43.27808" lon="6.24174">
        <ele>282.1</ele>
        <time>2023-06-28T09:26:19Z</time>
      </trkpt>
      <trkpt lat="43.27818" lon="6.24169">
        <ele>280.3</ele>
        <time>2023-06-28T09:26:29Z</time>
      </trkpt>
      <trkpt lat="43.2783" lon="6.2416">
        <ele>277.6</ele>
        <time>2023-06-28T09:26:39Z</time>
      </trkpt>
      <trkpt lat="43.2784" lon="6.24154">
        <ele>276.6</ele>
        <time>2023-06-28T09:26:49Z</time>
      </trkpt>
      <trkpt lat="43.27852" lon="6.24146">
        <ele>275.7</ele>
        <time>2023-06-28T09:26:59Z</time>
      </trkpt>
      <trkpt lat="43.27863" lon="6.24137">
        <ele>274.1</ele>
        <time>2023-06-28T09:27:09Z</time>
      </trkpt>
      <trkpt lat="43.27877" lon="6.24131">
        <ele>272.5</ele>
        <time>2023-06-28T09:27:19Z</time>
      </trkpt>
      <trkpt lat="43.2789" lon="6.24123">
        <ele>270.8</ele>
        <time>2023-06-28T09:27:29Z</time>
      </trkpt>
      <trkpt lat="43.27901" lon="6.24114">
        <ele>269.1</ele>
        <time>2023-06-28T09:27:39Z</time>
      </trkpt>
      <trkpt lat="43.27912" lon="6.24108">
        <ele>267.1</ele>
        <time>2023-06-28T09:27:49Z</time>
      </trkpt>
      <trkpt lat="43.27922" lon="6.24092">
        <ele>264.2</ele>
        <time>2023-06-28T09:27:59Z</time>
      </trkpt>
      <trkpt lat="43.27928" lon="6.24076">
        <ele>262.3</ele>
        <time>2023-06-28T09:28:09Z</time>
      </trkpt>
      <trkpt lat="43.27939" lon="6.24061">
        <ele>259.9</ele>
        <time>2023-06-28T09:28:19Z</time>
      </trkpt>
      <trkpt lat="43.2795" lon="6.24047">
        <ele>258.7</ele>
        <time>2023-06-28T09:28:29Z</time>
      </trkpt>
      <trkpt lat="43.27959" lon="6.24031">
        <ele>257.1</ele>
        <time>2023-06-28T09:28:39Z</time>
      </trkpt>
      <trkpt lat="43.27967" lon="6.24018">
        <ele>254.8</ele>
        <time>2023-06-28T09:28:49Z</time>
      </trkpt>
      <trkpt lat="43.27977" lon="6.24005">
        <ele>252.7</ele>
        <time>2023-06-28T09:28:59Z</time>
      </trkpt>
      <trkpt lat="43.2798" lon="6.23993">
        <ele>250.8</ele>
        <time>2023-06-28T09:29:09Z</time>
      </trkpt>
      <trkpt lat="43.2799" lon="6.23974">
        <ele>248</ele>
        <time>2023-06-28T09:29:19Z</time>
      </trkpt>
      <trkpt lat="43.27995" lon="6.23958">
        <ele>243.6</ele>
        <time>2023-06-28T09:29:29Z</time>
      </trkpt>
      <trkpt lat="43.28005" lon="6.23947">
        <ele>242.7</ele>
        <time>2023-06-28T09:29:39Z</time>
      </trkpt>
      <trkpt lat="43.28014" lon="6.23939">
        <ele>240</ele>
        <time>2023-06-28T09:29:49Z</time>
      </trkpt>
      <trkpt lat="43.28019" lon="6.23935">
        <ele>237.7</ele>
        <time>2023-06-28T09:29:59Z</time>
      </trkpt>
      <trkpt lat="43.28019" lon="6.23935">
        <ele>237.5</ele>
        <time>2023-06-28T09:30:09Z</time>
      </trkpt>
      <trkpt lat="43.2802" lon="6.23935">
        <ele>237.2</ele>
        <time>2023-06-28T09:30:19Z</time>
      </trkpt>
      <trkpt lat="43.28021" lon="6.23936">
        <ele>237.3</ele>
        <time>2023-06-28T09:30:29Z</time>
      </trkpt>
      <trkpt lat="43.28025" lon="6.23936">
        <ele>237.1</ele>
        <time>2023-06-28T09:30:39Z</time>
      </trkpt>
      <trkpt lat="43.28027" lon="6.23934">
        <ele>237.6</ele>
        <time>2023-06-28T09:30:49Z</time>
      </trkpt>
      <trkpt lat="43.28027" lon="6.23934">
        <ele>237.5</ele>
        <time>2023-06-28T09:30:59Z</time>
      </trkpt>
      <trkpt lat="43.28025" lon="6.23935">
        <ele>236.8</ele>
        <time>2023-06-28T09:31:09Z</time>
      </trkpt>
      <trkpt lat="43.28025" lon="6.23935">
        <ele>236.5</ele>
        <time>2023-06-28T09:31:19Z</time>
      </trkpt>
      <trkpt lat="43.2803" lon="6.23926">
        <ele>235.8</ele>
        <time>2023-06-28T09:31:29Z</time>
      </trkpt>
      <trkpt lat="43.28035" lon="6.23913">
        <ele>232.8</ele>
        <time>2023-06-28T09:31:39Z</time>
      </trkpt>
      <trkpt lat="43.28045" lon="6.23901">
        <ele>229.9</ele>
        <time>2023-06-28T09:31:49Z</time>
      </trkpt>
      <trkpt lat="43.28056" lon="6.23888">
        <ele>226.2</ele>
        <time>2023-06-28T09:31:59Z</time>
      </trkpt>
      <trkpt lat="43.28065" lon="6.23872">
        <ele>222.7</ele>
        <time>2023-06-28T09:32:09Z</time>
      </trkpt>
      <trkpt lat="43.28074" lon="6.23858">
        <ele>219</ele>
        <time>2023-06-28T09:32:19Z</time>
      </trkpt>
      <trkpt lat="43.28078" lon="6.23841">
        <ele>215.4</ele>
        <time>2023-06-28T09:32:29Z</time>
      </trkpt>
      <trkpt lat="43.28082" lon="6.23824">
        <ele>211.1</ele>
        <time>2023-06-28T09:32:39Z</time>
      </trkpt>
      <trkpt lat="43.28088" lon="6.23811">
        <ele>207.1</ele>
        <time>2023-06-28T09:32:49Z</time>
      </trkpt>
      <trkpt lat="43.28095" lon="6.23796">
        <ele>203.4</ele>
        <time>2023-06-28T09:32:59Z</time>
      </trkpt>
      <trkpt lat="43.28099" lon="6.23779">
        <ele>199.9</ele>
        <time>2023-06-28T09:33:09Z</time>
      </trkpt>
      <trkpt lat="43.28103" lon="6.23763">
        <ele>196.1</ele>
        <time>2023-06-28T09:33:19Z</time>
      </trkpt>
      <trkpt lat="43.2811" lon="6.2375">
        <ele>192.5</ele>
        <time>2023-06-28T09:33:29Z</time>
      </trkpt>
      <trkpt lat="43.28109" lon="6.23741">
        <ele>190.5</ele>
        <time>2023-06-28T09:33:39Z</time>
      </trkpt>
      <trkpt lat="43.28108" lon="6.23732">
        <ele>190.8</ele>
        <time>2023-06-28T09:33:49Z</time>
      </trkpt>
      <trkpt lat="43.28108" lon="6.23728">
        <ele>190.8</ele>
        <time>2023-06-28T09:33:59Z</time>
      </trkpt>
      <trkpt lat="43.28107" lon="6.23724">
        <ele>190</ele>
        <time>2023-06-28T09:34:09Z</time>
      </trkpt>
      <trkpt lat="43.28108" lon="6.23721">
        <ele>190.9</ele>
        <time>2023-06-28T09:34:19Z</time>
      </trkpt>
      <trkpt lat="43.2811" lon="6.23719">
        <ele>189.9</ele>
        <time>2023-06-28T09:34:29Z</time>
      </trkpt>
      <trkpt lat="43.28102" lon="6.23705">
        <ele>189.3</ele>
        <time>2023-06-28T09:34:39Z</time>
      </trkpt>
      <trkpt lat="43.28106" lon="6.2369">
        <ele>187.9</ele>
        <time>2023-06-28T09:34:49Z</time>
      </trkpt>
      <trkpt lat="43.28108" lon="6.23678">
        <ele>187.7</ele>
        <time>2023-06-28T09:34:59Z</time>
      </trkpt>
      <trkpt lat="43.28104" lon="6.23662">
        <ele>187.4</ele>
        <time>2023-06-28T09:35:09Z</time>
      </trkpt>
      <trkpt lat="43.28103" lon="6.23647">
        <ele>187.1</ele>
        <time>2023-06-28T09:35:19Z</time>
      </trkpt>
      <trkpt lat="43.28096" lon="6.23636">
        <ele>186.9</ele>
        <time>2023-06-28T09:35:29Z</time>
      </trkpt>
      <trkpt lat="43.28096" lon="6.23616">
        <ele>186.6</ele>
        <time>2023-06-28T09:35:39Z</time>
      </trkpt>
      <trkpt lat="43.28098" lon="6.23594">
        <ele>186.1</ele>
        <time>2023-06-28T09:35:49Z</time>
      </trkpt>
      <trkpt lat="43.28101" lon="6.23581">
        <ele>187.1</ele>
        <time>2023-06-28T09:35:59Z</time>
      </trkpt>
      <trkpt lat="43.28108" lon="6.23565">
        <ele>187.1</ele>
        <time>2023-06-28T09:36:09Z</time>
      </trkpt>
      <trkpt lat="43.28112" lon="6.23552">
        <ele>186.8</ele>
        <time>2023-06-28T09:36:19Z</time>
      </trkpt>
      <trkpt lat="43.28115" lon="6.23536">
        <ele>186.5</ele>
        <time>2023-06-28T09:36:29Z</time>
      </trkpt>
      <trkpt lat="43.28117" lon="6.23515">
        <ele>186.2</ele>
        <time>2023-06-28T09:36:39Z</time>
      </trkpt>
      <trkpt lat="43.28116" lon="6.23502">
        <ele>186</ele>
        <time>2023-06-28T09:36:49Z</time>
      </trkpt>
      <trkpt lat="43.28115" lon="6.23491">
        <ele>186.6</ele>
        <time>2023-06-28T09:36:59Z</time>
      </trkpt>
      <trkpt lat="43.28116" lon="6.23478">
        <ele>186.7</ele>
        <time>2023-06-28T09:37:09Z</time>
      </trkpt>
      <trkpt lat="43.28119" lon="6.23463">
        <ele>186</ele>
        <time>2023-06-28T09:37:19Z</time>
      </trkpt>
      <trkpt lat="43.28121" lon="6.23446">
        <ele>184.7</ele>
        <time>2023-06-28T09:37:29Z</time>
      </trkpt>
      <trkpt lat="43.28121" lon="6.23436">
        <ele>184.1</ele>
        <time>2023-06-28T09:37:39Z</time>
      </trkpt>
      <trkpt lat="43.28124" lon="6.23429">
        <ele>183.9</ele>
        <time>2023-06-28T09:37:49Z</time>
      </trkpt>
      <trkpt lat="43.28129" lon="6.23416">
        <ele>183.2</ele>
        <time>2023-06-28T09:37:59Z</time>
      </trkpt>
      <trkpt lat="43.28134" lon="6.23402">
        <ele>183.1</ele>
        <time>2023-06-28T09:38:09Z</time>
      </trkpt>
      <trkpt lat="43.2814" lon="6.2339">
        <ele>183.2</ele>
        <time>2023-06-28T09:38:19Z</time>
      </trkpt>
      <trkpt lat="43.28149" lon="6.23382">
        <ele>183.7</ele>
        <time>2023-06-28T09:38:29Z</time>
      </trkpt>
      <trkpt lat="43.28158" lon="6.2338">
        <ele>184.1</ele>
        <time>2023-06-28T09:38:39Z</time>
      </trkpt>
      <trkpt lat="43.28165" lon="6.23384">
        <ele>184.1</ele>
        <time>2023-06-28T09:38:49Z</time>
      </trkpt>
      <trkpt lat="43.28171" lon="6.23394">
        <ele>184.2</ele>
        <time>2023-06-28T09:38:59Z</time>
      </trkpt>
      <trkpt lat="43.28181" lon="6.23402">
        <ele>184.5</ele>
        <time>2023-06-28T09:39:09Z</time>
      </trkpt>
      <trkpt lat="43.2819" lon="6.23404">
        <ele>184</ele>
        <time>2023-06-28T09:39:20Z</time>
      </trkpt>
      <trkpt lat="43.28206" lon="6.23411">
        <ele>185.3</ele>
        <time>2023-06-28T09:39:30Z</time>
      </trkpt>
      <trkpt lat="43.28217" lon="6.23408">
        <ele>185.9</ele>
        <time>2023-06-28T09:39:40Z</time>
      </trkpt>
      <trkpt lat="43.2823" lon="6.234">
        <ele>186.2</ele>
        <time>2023-06-28T09:39:50Z</time>
      </trkpt>
      <trkpt lat="43.28243" lon="6.23393">
        <ele>187.4</ele>
        <time>2023-06-28T09:40:00Z</time>
      </trkpt>
      <trkpt lat="43.28255" lon="6.23386">
        <ele>189.1</ele>
        <time>2023-06-28T09:40:10Z</time>
      </trkpt>
      <trkpt lat="43.28266" lon="6.23385">
        <ele>190.8</ele>
        <time>2023-06-28T09:40:20Z</time>
      </trkpt>
      <trkpt lat="43.28275" lon="6.23381">
        <ele>191.5</ele>
        <time>2023-06-28T09:40:30Z</time>
      </trkpt>
      <trkpt lat="43.28288" lon="6.23378">
        <ele>192.8</ele>
        <time>2023-06-28T09:40:40Z</time>
      </trkpt>
      <trkpt lat="43.28299" lon="6.23365">
        <ele>193.4</ele>
        <time>2023-06-28T09:40:50Z</time>
      </trkpt>
      <trkpt lat="43.28315" lon="6.23358">
        <ele>193.8</ele>
        <time>2023-06-28T09:41:00Z</time>
      </trkpt>
      <trkpt lat="43.28325" lon="6.23336">
        <ele>194.6</ele>
        <time>2023-06-28T09:41:10Z</time>
      </trkpt>
      <trkpt lat="43.2834" lon="6.23323">
        <ele>194.7</ele>
        <time>2023-06-28T09:41:20Z</time>
      </trkpt>
      <trkpt lat="43.28349" lon="6.23304">
        <ele>195.4</ele>
        <time>2023-06-28T09:41:30Z</time>
      </trkpt>
      <trkpt lat="43.28357" lon="6.2329">
        <ele>195.2</ele>
        <time>2023-06-28T09:41:40Z</time>
      </trkpt>
      <trkpt lat="43.28374" lon="6.23272">
        <ele>194.9</ele>
        <time>2023-06-28T09:41:52Z</time>
      </trkpt>
      <trkpt lat="43.28383" lon="6.23262">
        <ele>193.7</ele>
        <time>2023-06-28T09:42:02Z</time>
      </trkpt>
      <trkpt lat="43.28391" lon="6.23252">
        <ele>192.5</ele>
        <time>2023-06-28T09:42:12Z</time>
      </trkpt>
      <trkpt lat="43.28396" lon="6.23229">
        <ele>192.7</ele>
        <time>2023-06-28T09:42:22Z</time>
      </trkpt>
      <trkpt lat="43.28406" lon="6.23213">
        <ele>191.7</ele>
        <time>2023-06-28T09:42:32Z</time>
      </trkpt>
      <trkpt lat="43.2841" lon="6.23195">
        <ele>191.4</ele>
        <time>2023-06-28T09:42:42Z</time>
      </trkpt>
      <trkpt lat="43.28416" lon="6.23176">
        <ele>190.7</ele>
        <time>2023-06-28T09:42:52Z</time>
      </trkpt>
      <trkpt lat="43.28423" lon="6.23161">
        <ele>190.2</ele>
        <time>2023-06-28T09:43:02Z</time>
      </trkpt>
      <trkpt lat="43.28431" lon="6.23148">
        <ele>188.3</ele>
        <time>2023-06-28T09:43:12Z</time>
      </trkpt>
      <trkpt lat="43.28444" lon="6.23143">
        <ele>189.9</ele>
        <time>2023-06-28T09:43:22Z</time>
      </trkpt>
      <trkpt lat="43.28454" lon="6.2313">
        <ele>189.8</ele>
        <time>2023-06-28T09:43:32Z</time>
      </trkpt>
      <trkpt lat="43.28466" lon="6.23115">
        <ele>187</ele>
        <time>2023-06-28T09:43:42Z</time>
      </trkpt>
      <trkpt lat="43.28472" lon="6.23098">
        <ele>186.8</ele>
        <time>2023-06-28T09:43:52Z</time>
      </trkpt>
      <trkpt lat="43.28479" lon="6.23084">
        <ele>184.9</ele>
        <time>2023-06-28T09:44:02Z</time>
      </trkpt>
      <trkpt lat="43.2849" lon="6.23068">
        <ele>183.9</ele>
        <time>2023-06-28T09:44:12Z</time>
      </trkpt>
      <trkpt lat="43.285" lon="6.23055">
        <ele>182.6</ele>
        <time>2023-06-28T09:44:22Z</time>
      </trkpt>
      <trkpt lat="43.28513" lon="6.23052">
        <ele>180.8</ele>
        <time>2023-06-28T09:44:32Z</time>
      </trkpt>
      <trkpt lat="43.28524" lon="6.23048">
        <ele>180.5</ele>
        <time>2023-06-28T09:44:42Z</time>
      </trkpt>
      <trkpt lat="43.28537" lon="6.23042">
        <ele>180.4</ele>
        <time>2023-06-28T09:44:52Z</time>
      </trkpt>
      <trkpt lat="43.28551" lon="6.23036">
        <ele>180.5</ele>
        <time>2023-06-28T09:45:02Z</time>
      </trkpt>
      <trkpt lat="43.28565" lon="6.23022">
        <ele>179.6</ele>
        <time>2023-06-28T09:45:12Z</time>
      </trkpt>
      <trkpt lat="43.28576" lon="6.23018">
        <ele>180</ele>
        <time>2023-06-28T09:45:22Z</time>
      </trkpt>
      <trkpt lat="43.28588" lon="6.23017">
        <ele>180.5</ele>
        <time>2023-06-28T09:45:32Z</time>
      </trkpt>
      <trkpt lat="43.28602" lon="6.23019">
        <ele>180.5</ele>
        <time>2023-06-28T09:45:42Z</time>
      </trkpt>
      <trkpt lat="43.28616" lon="6.23024">
        <ele>180.6</ele>
        <time>2023-06-28T09:45:52Z</time>
      </trkpt>
      <trkpt lat="43.28627" lon="6.23035">
        <ele>181.7</ele>
        <time>2023-06-28T09:46:02Z</time>
      </trkpt>
      <trkpt lat="43.28637" lon="6.23044">
        <ele>181.9</ele>
        <time>2023-06-28T09:46:12Z</time>
      </trkpt>
      <trkpt lat="43.2865" lon="6.23052">
        <ele>182.8</ele>
        <time>2023-06-28T09:46:22Z</time>
      </trkpt>
      <trkpt lat="43.28664" lon="6.2306">
        <ele>183.2</ele>
        <time>2023-06-28T09:46:32Z</time>
      </trkpt>
      <trkpt lat="43.28676" lon="6.23064">
        <ele>183.5</ele>
        <time>2023-06-28T09:46:42Z</time>
      </trkpt>
      <trkpt lat="43.28687" lon="6.23075">
        <ele>184.3</ele>
        <time>2023-06-28T09:46:52Z</time>
      </trkpt>
      <trkpt lat="43.28702" lon="6.23077">
        <ele>183.8</ele>
        <time>2023-06-28T09:47:02Z</time>
      </trkpt>
      <trkpt lat="43.28711" lon="6.23075">
        <ele>183.6</ele>
        <time>2023-06-28T09:47:12Z</time>
      </trkpt>
      <trkpt lat="43.28724" lon="6.23071">
        <ele>182.7</ele>
        <time>2023-06-28T09:47:22Z</time>
      </trkpt>
      <trkpt lat="43.28741" lon="6.23071">
        <ele>182</ele>
        <time>2023-06-28T09:47:33Z</time>
      </trkpt>
      <trkpt lat="43.28749" lon="6.23066">
        <ele>181</ele>
        <time>2023-06-28T09:47:43Z</time>
      </trkpt>
      <trkpt lat="43.28759" lon="6.23057">
        <ele>180.3</ele>
        <time>2023-06-28T09:47:53Z</time>
      </trkpt>
      <trkpt lat="43.28773" lon="6.2305">
        <ele>180.6</ele>
        <time>2023-06-28T09:48:03Z</time>
      </trkpt>
      <trkpt lat="43.28785" lon="6.23057">
        <ele>180.1</ele>
        <time>2023-06-28T09:48:13Z</time>
      </trkpt>
      <trkpt lat="43.28797" lon="6.23057">
        <ele>181.8</ele>
        <time>2023-06-28T09:48:23Z</time>
      </trkpt>
      <trkpt lat="43.28811" lon="6.23068">
        <ele>182.3</ele>
        <time>2023-06-28T09:48:33Z</time>
      </trkpt>
      <trkpt lat="43.28825" lon="6.23071">
        <ele>183</ele>
        <time>2023-06-28T09:48:43Z</time>
      </trkpt>
      <trkpt lat="43.28836" lon="6.23075">
        <ele>183</ele>
        <time>2023-06-28T09:48:53Z</time>
      </trkpt>
      <trkpt lat="43.28843" lon="6.23072">
        <ele>183.5</ele>
        <time>2023-06-28T09:49:03Z</time>
      </trkpt>
      <trkpt lat="43.28848" lon="6.23065">
        <ele>183.6</ele>
        <time>2023-06-28T09:49:13Z</time>
      </trkpt>
      <trkpt lat="43.28849" lon="6.23065">
        <ele>183.6</ele>
        <time>2023-06-28T09:49:23Z</time>
      </trkpt>
      <trkpt lat="43.2885" lon="6.23067">
        <ele>183.4</ele>
        <time>2023-06-28T09:49:33Z</time>
      </trkpt>
      <trkpt lat="43.2885" lon="6.23068">
        <ele>183.3</ele>
        <time>2023-06-28T09:49:43Z</time>
      </trkpt>
      <trkpt lat="43.28849" lon="6.23069">
        <ele>182.9</ele>
        <time>2023-06-28T09:49:53Z</time>
      </trkpt>
      <trkpt lat="43.28849" lon="6.23069">
        <ele>182.8</ele>
        <time>2023-06-28T09:50:03Z</time>
      </trkpt>
      <trkpt lat="43.28849" lon="6.23069">
        <ele>182.7</ele>
        <time>2023-06-28T09:50:13Z</time>
      </trkpt>
      <trkpt lat="43.28853" lon="6.23069">
        <ele>182.8</ele>
        <time>2023-06-28T09:50:23Z</time>
      </trkpt>
      <trkpt lat="43.28852" lon="6.23069">
        <ele>183</ele>
        <time>2023-06-28T09:50:33Z</time>
      </trkpt>
      <trkpt lat="43.28851" lon="6.23068">
        <ele>183.5</ele>
        <time>2023-06-28T09:50:43Z</time>
      </trkpt>
      <trkpt lat="43.28851" lon="6.23068">
        <ele>183.1</ele>
        <time>2023-06-28T09:50:53Z</time>
      </trkpt>
      <trkpt lat="43.28852" lon="6.23068">
        <ele>183.1</ele>
        <time>2023-06-28T09:50:58Z</time>
      </trkpt>
    </trkseg>
  </trk>
</gpx>